<?xml version="1.0" encoding="UTF-8" standalone="no" ?><gpx xmlns="http://www.topografix.com/GPX/1/1" xmlns:gpxx="http://www.garmin.com/xmlschemas/GpxExtensions/v3" xmlns:wptx1="http://www.garmin.com/xmlschemas/WaypointExtension/v1" xmlns:gpxtpx="http://www.garmin.com/xmlschemas/TrackPointExtension/v1" creator="GuideVTT.com" version="1.1" xmlns:xsi="http://www.w3.org/2001/XMLSchema-instance" xsi:schemaLocation="http://www.topografix.com/GPX/1/1 http://www.topografix.com/GPX/1/1/gpx.xsd http://www.garmin.com/xmlschemas/GpxExtensions/v3 http://www8.garmin.com/xmlschemas/GpxExtensionsv3.xsd http://www.garmin.com/xmlschemas/WaypointExtension/v1 http://www8.garmin.com/xmlschemas/WaypointExtensionv1.xsd http://www.garmin.com/xmlschemas/TrackPointExtension/v1 http://www.garmin.com/xmlschemas/TrackPointExtensionv1.xsd">
<metadata><link href="http://www.garmin.com"><text>Garmin International</text></link><time>2013-06-22T15:13:50Z</time></metadata>
<trk><name>rp2016_34.gpx</name><extensions><gpxx:TrackExtension><gpxx:DisplayColor>Cyan</gpxx:DisplayColor></gpxx:TrackExtension></extensions><trkseg>
<trkpt lat="46.60043" lon="6.36866"><ele></ele><time>2016-12-15T23:22:8Z</time></trkpt>
<trkpt lat="46.60042" lon="6.36866"><ele></ele><time>2016-12-15T23:22:11Z</time></trkpt>
<trkpt lat="46.60042" lon="6.36866"><ele></ele><time>2016-12-15T23:22:14Z</time></trkpt>
<trkpt lat="46.60041" lon="6.36866"><ele></ele><time>2016-12-15T23:22:17Z</time></trkpt>
<trkpt lat="46.60041" lon="6.36866"><ele></ele><time>2016-12-15T23:22:20Z</time></trkpt>
<trkpt lat="46.60041" lon="6.36866"><ele></ele><time>2016-12-15T23:22:23Z</time></trkpt>
<trkpt lat="46.6004" lon="6.36865"><ele></ele><time>2016-12-15T23:22:26Z</time></trkpt>
<trkpt lat="46.6004" lon="6.36867"><ele></ele><time>2016-12-15T23:22:29Z</time></trkpt>
<trkpt lat="46.60039" lon="6.36864"><ele></ele><time>2016-12-15T23:22:32Z</time></trkpt>
<trkpt lat="46.60038" lon="6.36863"><ele></ele><time>2016-12-15T23:22:35Z</time></trkpt>
<trkpt lat="46.60039" lon="6.36864"><ele></ele><time>2016-12-15T23:22:38Z</time></trkpt>
<trkpt lat="46.60045" lon="6.36864"><ele></ele><time>2016-12-15T23:22:41Z</time></trkpt>
<trkpt lat="46.60043" lon="6.36862"><ele></ele><time>2016-12-15T23:22:44Z</time></trkpt>
<trkpt lat="46.60043" lon="6.36855"><ele></ele><time>2016-12-15T23:22:47Z</time></trkpt>
<trkpt lat="46.60043" lon="6.36852"><ele></ele><time>2016-12-15T23:22:50Z</time></trkpt>
<trkpt lat="46.60045" lon="6.36845"><ele></ele><time>2016-12-15T23:22:53Z</time></trkpt>
<trkpt lat="46.60045" lon="6.36829"><ele></ele><time>2016-12-15T23:22:56Z</time></trkpt>
<trkpt lat="46.60046" lon="6.36813"><ele></ele><time>2016-12-15T23:22:59Z</time></trkpt>
<trkpt lat="46.6005" lon="6.36791"><ele></ele><time>2016-12-15T23:23:2Z</time></trkpt>
<trkpt lat="46.60051" lon="6.36786"><ele></ele><time>2016-12-15T23:23:5Z</time></trkpt>
<trkpt lat="46.60052" lon="6.36781"><ele></ele><time>2016-12-15T23:23:8Z</time></trkpt>
<trkpt lat="46.60052" lon="6.36779"><ele></ele><time>2016-12-15T23:23:11Z</time></trkpt>
<trkpt lat="46.60053" lon="6.36774"><ele></ele><time>2016-12-15T23:23:14Z</time></trkpt>
<trkpt lat="46.60054" lon="6.36769"><ele></ele><time>2016-12-15T23:23:17Z</time></trkpt>
<trkpt lat="46.60055" lon="6.36764"><ele></ele><time>2016-12-15T23:23:20Z</time></trkpt>
<trkpt lat="46.60056" lon="6.3675"><ele></ele><time>2016-12-15T23:23:23Z</time></trkpt>
<trkpt lat="46.60062" lon="6.36724"><ele></ele><time>2016-12-15T23:23:26Z</time></trkpt>
<trkpt lat="46.60066" lon="6.36698"><ele></ele><time>2016-12-15T23:23:29Z</time></trkpt>
<trkpt lat="46.60069" lon="6.36672"><ele></ele><time>2016-12-15T23:23:32Z</time></trkpt>
<trkpt lat="46.60073" lon="6.36644"><ele></ele><time>2016-12-15T23:23:35Z</time></trkpt>
<trkpt lat="46.60078" lon="6.36617"><ele></ele><time>2016-12-15T23:23:38Z</time></trkpt>
<trkpt lat="46.60085" lon="6.36579"><ele></ele><time>2016-12-15T23:23:41Z</time></trkpt>
<trkpt lat="46.6009" lon="6.36552"><ele></ele><time>2016-12-15T23:23:44Z</time></trkpt>
<trkpt lat="46.60092" lon="6.36548"><ele></ele><time>2016-12-15T23:23:47Z</time></trkpt>
<trkpt lat="46.60097" lon="6.36523"><ele></ele><time>2016-12-15T23:23:50Z</time></trkpt>
<trkpt lat="46.60098" lon="6.36509"><ele></ele><time>2016-12-15T23:23:53Z</time></trkpt>
<trkpt lat="46.60103" lon="6.36483"><ele></ele><time>2016-12-15T23:23:56Z</time></trkpt>
<trkpt lat="46.6011" lon="6.36456"><ele></ele><time>2016-12-15T23:23:59Z</time></trkpt>
<trkpt lat="46.60111" lon="6.36449"><ele></ele><time>2016-12-15T23:24:2Z</time></trkpt>
<trkpt lat="46.60118" lon="6.36416"><ele></ele><time>2016-12-15T23:24:5Z</time></trkpt>
<trkpt lat="46.6012" lon="6.36389"><ele></ele><time>2016-12-15T23:24:8Z</time></trkpt>
<trkpt lat="46.6012" lon="6.36385"><ele></ele><time>2016-12-15T23:24:11Z</time></trkpt>
<trkpt lat="46.60119" lon="6.36374"><ele></ele><time>2016-12-15T23:24:14Z</time></trkpt>
<trkpt lat="46.60107" lon="6.36354"><ele></ele><time>2016-12-15T23:24:17Z</time></trkpt>
<trkpt lat="46.60087" lon="6.36357"><ele></ele><time>2016-12-15T23:24:20Z</time></trkpt>
<trkpt lat="46.60071" lon="6.36366"><ele></ele><time>2016-12-15T23:24:23Z</time></trkpt>
<trkpt lat="46.6007" lon="6.36367"><ele></ele><time>2016-12-15T23:24:26Z</time></trkpt>
<trkpt lat="46.60063" lon="6.36371"><ele></ele><time>2016-12-15T23:24:29Z</time></trkpt>
<trkpt lat="46.60042" lon="6.36392"><ele></ele><time>2016-12-15T23:24:32Z</time></trkpt>
<trkpt lat="46.60038" lon="6.36395"><ele></ele><time>2016-12-15T23:24:35Z</time></trkpt>
<trkpt lat="46.60027" lon="6.36398"><ele></ele><time>2016-12-15T23:24:38Z</time></trkpt>
<trkpt lat="46.60019" lon="6.36397"><ele></ele><time>2016-12-15T23:24:41Z</time></trkpt>
<trkpt lat="46.6" lon="6.36396"><ele></ele><time>2016-12-15T23:24:44Z</time></trkpt>
<trkpt lat="46.59983" lon="6.36401"><ele></ele><time>2016-12-15T23:24:47Z</time></trkpt>
<trkpt lat="46.59975" lon="6.36407"><ele></ele><time>2016-12-15T23:24:50Z</time></trkpt>
<trkpt lat="46.59958" lon="6.36435"><ele></ele><time>2016-12-15T23:24:53Z</time></trkpt>
<trkpt lat="46.59951" lon="6.36452"><ele></ele><time>2016-12-15T23:24:56Z</time></trkpt>
<trkpt lat="46.59945" lon="6.36462"><ele></ele><time>2016-12-15T23:24:59Z</time></trkpt>
<trkpt lat="46.59939" lon="6.36472"><ele></ele><time>2016-12-15T23:25:2Z</time></trkpt>
<trkpt lat="46.59926" lon="6.36493"><ele></ele><time>2016-12-15T23:25:5Z</time></trkpt>
<trkpt lat="46.59914" lon="6.36512"><ele></ele><time>2016-12-15T23:25:8Z</time></trkpt>
<trkpt lat="46.59898" lon="6.36526"><ele></ele><time>2016-12-15T23:25:11Z</time></trkpt>
<trkpt lat="46.59895" lon="6.36531"><ele></ele><time>2016-12-15T23:25:14Z</time></trkpt>
<trkpt lat="46.59892" lon="6.36532"><ele></ele><time>2016-12-15T23:25:17Z</time></trkpt>
<trkpt lat="46.59884" lon="6.3652"><ele></ele><time>2016-12-15T23:25:20Z</time></trkpt>
<trkpt lat="46.5988" lon="6.36511"><ele></ele><time>2016-12-15T23:25:23Z</time></trkpt>
<trkpt lat="46.59866" lon="6.36493"><ele></ele><time>2016-12-15T23:25:26Z</time></trkpt>
<trkpt lat="46.59854" lon="6.36472"><ele></ele><time>2016-12-15T23:25:29Z</time></trkpt>
<trkpt lat="46.59843" lon="6.36456"><ele></ele><time>2016-12-15T23:25:32Z</time></trkpt>
<trkpt lat="46.59838" lon="6.36449"><ele></ele><time>2016-12-15T23:25:35Z</time></trkpt>
<trkpt lat="46.5983" lon="6.36435"><ele></ele><time>2016-12-15T23:25:38Z</time></trkpt>
<trkpt lat="46.59824" lon="6.36424"><ele></ele><time>2016-12-15T23:25:41Z</time></trkpt>
<trkpt lat="46.5982" lon="6.36413"><ele></ele><time>2016-12-15T23:25:44Z</time></trkpt>
<trkpt lat="46.59812" lon="6.3639"><ele></ele><time>2016-12-15T23:25:47Z</time></trkpt>
<trkpt lat="46.59811" lon="6.36388"><ele></ele><time>2016-12-15T23:25:50Z</time></trkpt>
<trkpt lat="46.59806" lon="6.36381"><ele></ele><time>2016-12-15T23:25:53Z</time></trkpt>
<trkpt lat="46.59793" lon="6.36361"><ele></ele><time>2016-12-15T23:25:56Z</time></trkpt>
<trkpt lat="46.5978" lon="6.36343"><ele></ele><time>2016-12-15T23:25:59Z</time></trkpt>
<trkpt lat="46.59772" lon="6.36325"><ele></ele><time>2016-12-15T23:26:2Z</time></trkpt>
<trkpt lat="46.59766" lon="6.363"><ele></ele><time>2016-12-15T23:26:5Z</time></trkpt>
<trkpt lat="46.59765" lon="6.36291"><ele></ele><time>2016-12-15T23:26:8Z</time></trkpt>
<trkpt lat="46.59763" lon="6.36286"><ele></ele><time>2016-12-15T23:26:11Z</time></trkpt>
<trkpt lat="46.59751" lon="6.36255"><ele></ele><time>2016-12-15T23:26:14Z</time></trkpt>
<trkpt lat="46.59748" lon="6.3625"><ele></ele><time>2016-12-15T23:26:17Z</time></trkpt>
<trkpt lat="46.59735" lon="6.36233"><ele></ele><time>2016-12-15T23:26:20Z</time></trkpt>
<trkpt lat="46.59716" lon="6.36226"><ele></ele><time>2016-12-15T23:26:23Z</time></trkpt>
<trkpt lat="46.59711" lon="6.36224"><ele></ele><time>2016-12-15T23:26:26Z</time></trkpt>
<trkpt lat="46.597" lon="6.3622"><ele></ele><time>2016-12-15T23:26:29Z</time></trkpt>
<trkpt lat="46.59698" lon="6.3622"><ele></ele><time>2016-12-15T23:26:32Z</time></trkpt>
<trkpt lat="46.59679" lon="6.36216"><ele></ele><time>2016-12-15T23:26:35Z</time></trkpt>
<trkpt lat="46.59666" lon="6.36198"><ele></ele><time>2016-12-15T23:26:38Z</time></trkpt>
<trkpt lat="46.59683" lon="6.3618"><ele></ele><time>2016-12-15T23:26:41Z</time></trkpt>
<trkpt lat="46.59702" lon="6.3618"><ele></ele><time>2016-12-15T23:26:44Z</time></trkpt>
<trkpt lat="46.59708" lon="6.36179"><ele></ele><time>2016-12-15T23:26:47Z</time></trkpt>
<trkpt lat="46.59711" lon="6.36178"><ele></ele><time>2016-12-15T23:26:50Z</time></trkpt>
<trkpt lat="46.59725" lon="6.36177"><ele></ele><time>2016-12-15T23:26:53Z</time></trkpt>
<trkpt lat="46.59732" lon="6.36175"><ele></ele><time>2016-12-15T23:26:56Z</time></trkpt>
<trkpt lat="46.59736" lon="6.36174"><ele></ele><time>2016-12-15T23:26:59Z</time></trkpt>
<trkpt lat="46.59745" lon="6.36174"><ele></ele><time>2016-12-15T23:27:2Z</time></trkpt>
<trkpt lat="46.59763" lon="6.36172"><ele></ele><time>2016-12-15T23:27:5Z</time></trkpt>
<trkpt lat="46.59791" lon="6.36174"><ele></ele><time>2016-12-15T23:27:8Z</time></trkpt>
<trkpt lat="46.59801" lon="6.36173"><ele></ele><time>2016-12-15T23:27:11Z</time></trkpt>
<trkpt lat="46.59806" lon="6.36172"><ele></ele><time>2016-12-15T23:27:14Z</time></trkpt>
<trkpt lat="46.59812" lon="6.36171"><ele></ele><time>2016-12-15T23:27:17Z</time></trkpt>
<trkpt lat="46.59829" lon="6.36169"><ele></ele><time>2016-12-15T23:27:20Z</time></trkpt>
<trkpt lat="46.59841" lon="6.36167"><ele></ele><time>2016-12-15T23:27:23Z</time></trkpt>
<trkpt lat="46.59858" lon="6.36162"><ele></ele><time>2016-12-15T23:27:26Z</time></trkpt>
<trkpt lat="46.59867" lon="6.36138"><ele></ele><time>2016-12-15T23:27:29Z</time></trkpt>
<trkpt lat="46.5987" lon="6.36128"><ele></ele><time>2016-12-15T23:27:32Z</time></trkpt>
<trkpt lat="46.59877" lon="6.36096"><ele></ele><time>2016-12-15T23:27:35Z</time></trkpt>
<trkpt lat="46.59881" lon="6.3607"><ele></ele><time>2016-12-15T23:27:38Z</time></trkpt>
<trkpt lat="46.59885" lon="6.36044"><ele></ele><time>2016-12-15T23:27:41Z</time></trkpt>
<trkpt lat="46.59893" lon="6.3602"><ele></ele><time>2016-12-15T23:27:44Z</time></trkpt>
<trkpt lat="46.59903" lon="6.35997"><ele></ele><time>2016-12-15T23:27:47Z</time></trkpt>
<trkpt lat="46.59908" lon="6.35988"><ele></ele><time>2016-12-15T23:27:50Z</time></trkpt>
<trkpt lat="46.59912" lon="6.3598"><ele></ele><time>2016-12-15T23:27:53Z</time></trkpt>
<trkpt lat="46.59917" lon="6.35973"><ele></ele><time>2016-12-15T23:27:56Z</time></trkpt>
<trkpt lat="46.59928" lon="6.3595"><ele></ele><time>2016-12-15T23:27:59Z</time></trkpt>
<trkpt lat="46.59931" lon="6.35944"><ele></ele><time>2016-12-15T23:28:2Z</time></trkpt>
<trkpt lat="46.59936" lon="6.35936"><ele></ele><time>2016-12-15T23:28:5Z</time></trkpt>
<trkpt lat="46.59946" lon="6.35914"><ele></ele><time>2016-12-15T23:28:8Z</time></trkpt>
<trkpt lat="46.59951" lon="6.35905"><ele></ele><time>2016-12-15T23:28:11Z</time></trkpt>
<trkpt lat="46.59963" lon="6.35887"><ele></ele><time>2016-12-15T23:28:14Z</time></trkpt>
<trkpt lat="46.59979" lon="6.35874"><ele></ele><time>2016-12-15T23:28:17Z</time></trkpt>
<trkpt lat="46.59995" lon="6.35887"><ele></ele><time>2016-12-15T23:28:20Z</time></trkpt>
<trkpt lat="46.60005" lon="6.35911"><ele></ele><time>2016-12-15T23:28:23Z</time></trkpt>
<trkpt lat="46.60011" lon="6.35931"><ele></ele><time>2016-12-15T23:28:26Z</time></trkpt>
<trkpt lat="46.60014" lon="6.35932"><ele></ele><time>2016-12-15T23:28:29Z</time></trkpt>
<trkpt lat="46.60018" lon="6.35932"><ele></ele><time>2016-12-15T23:28:32Z</time></trkpt>
<trkpt lat="46.60018" lon="6.35901"><ele></ele><time>2016-12-15T23:28:35Z</time></trkpt>
<trkpt lat="46.60012" lon="6.35891"><ele></ele><time>2016-12-15T23:28:38Z</time></trkpt>
<trkpt lat="46.60008" lon="6.35869"><ele></ele><time>2016-12-15T23:28:41Z</time></trkpt>
<trkpt lat="46.60008" lon="6.3585"><ele></ele><time>2016-12-15T23:28:44Z</time></trkpt>
<trkpt lat="46.60008" lon="6.35838"><ele></ele><time>2016-12-15T23:28:47Z</time></trkpt>
<trkpt lat="46.60008" lon="6.35833"><ele></ele><time>2016-12-15T23:28:50Z</time></trkpt>
<trkpt lat="46.60008" lon="6.35817"><ele></ele><time>2016-12-15T23:28:53Z</time></trkpt>
<trkpt lat="46.60007" lon="6.35805"><ele></ele><time>2016-12-15T23:28:56Z</time></trkpt>
<trkpt lat="46.60003" lon="6.35797"><ele></ele><time>2016-12-15T23:28:59Z</time></trkpt>
<trkpt lat="46.5999" lon="6.35801"><ele></ele><time>2016-12-15T23:29:2Z</time></trkpt>
<trkpt lat="46.59979" lon="6.35806"><ele></ele><time>2016-12-15T23:29:5Z</time></trkpt>
<trkpt lat="46.59967" lon="6.35813"><ele></ele><time>2016-12-15T23:29:8Z</time></trkpt>
<trkpt lat="46.5995" lon="6.35825"><ele></ele><time>2016-12-15T23:29:11Z</time></trkpt>
<trkpt lat="46.59932" lon="6.3583"><ele></ele><time>2016-12-15T23:29:14Z</time></trkpt>
<trkpt lat="46.59909" lon="6.35839"><ele></ele><time>2016-12-15T23:29:17Z</time></trkpt>
<trkpt lat="46.59894" lon="6.35856"><ele></ele><time>2016-12-15T23:29:20Z</time></trkpt>
<trkpt lat="46.59878" lon="6.35868"><ele></ele><time>2016-12-15T23:29:23Z</time></trkpt>
<trkpt lat="46.59862" lon="6.35871"><ele></ele><time>2016-12-15T23:29:26Z</time></trkpt>
<trkpt lat="46.5985" lon="6.35869"><ele></ele><time>2016-12-15T23:29:29Z</time></trkpt>
<trkpt lat="46.59842" lon="6.35871"><ele></ele><time>2016-12-15T23:29:32Z</time></trkpt>
<trkpt lat="46.59837" lon="6.3587"><ele></ele><time>2016-12-15T23:29:35Z</time></trkpt>
<trkpt lat="46.59829" lon="6.35869"><ele></ele><time>2016-12-15T23:29:38Z</time></trkpt>
<trkpt lat="46.59811" lon="6.35863"><ele></ele><time>2016-12-15T23:29:41Z</time></trkpt>
<trkpt lat="46.59793" lon="6.35863"><ele></ele><time>2016-12-15T23:29:44Z</time></trkpt>
<trkpt lat="46.59788" lon="6.35868"><ele></ele><time>2016-12-15T23:29:47Z</time></trkpt>
<trkpt lat="46.5977" lon="6.35875"><ele></ele><time>2016-12-15T23:29:50Z</time></trkpt>
<trkpt lat="46.59752" lon="6.35862"><ele></ele><time>2016-12-15T23:29:53Z</time></trkpt>
<trkpt lat="46.59759" lon="6.35847"><ele></ele><time>2016-12-15T23:29:56Z</time></trkpt>
<trkpt lat="46.59778" lon="6.35839"><ele></ele><time>2016-12-15T23:29:59Z</time></trkpt>
<trkpt lat="46.59782" lon="6.35837"><ele></ele><time>2016-12-15T23:30:2Z</time></trkpt>
<trkpt lat="46.59801" lon="6.35831"><ele></ele><time>2016-12-15T23:30:5Z</time></trkpt>
<trkpt lat="46.59816" lon="6.35822"><ele></ele><time>2016-12-15T23:30:8Z</time></trkpt>
<trkpt lat="46.59828" lon="6.35809"><ele></ele><time>2016-12-15T23:30:11Z</time></trkpt>
<trkpt lat="46.59833" lon="6.35802"><ele></ele><time>2016-12-15T23:30:14Z</time></trkpt>
<trkpt lat="46.59839" lon="6.35791"><ele></ele><time>2016-12-15T23:30:17Z</time></trkpt>
<trkpt lat="46.59849" lon="6.35774"><ele></ele><time>2016-12-15T23:30:20Z</time></trkpt>
<trkpt lat="46.59856" lon="6.35758"><ele></ele><time>2016-12-15T23:30:23Z</time></trkpt>
<trkpt lat="46.59863" lon="6.35732"><ele></ele><time>2016-12-15T23:30:26Z</time></trkpt>
<trkpt lat="46.59865" lon="6.3572"><ele></ele><time>2016-12-15T23:30:29Z</time></trkpt>
<trkpt lat="46.59867" lon="6.3571"><ele></ele><time>2016-12-15T23:30:32Z</time></trkpt>
<trkpt lat="46.59871" lon="6.35694"><ele></ele><time>2016-12-15T23:30:35Z</time></trkpt>
<trkpt lat="46.59873" lon="6.35687"><ele></ele><time>2016-12-15T23:30:38Z</time></trkpt>
<trkpt lat="46.59876" lon="6.35674"><ele></ele><time>2016-12-15T23:30:41Z</time></trkpt>
<trkpt lat="46.59878" lon="6.35667"><ele></ele><time>2016-12-15T23:30:44Z</time></trkpt>
<trkpt lat="46.5988" lon="6.35661"><ele></ele><time>2016-12-15T23:30:47Z</time></trkpt>
<trkpt lat="46.5989" lon="6.35639"><ele></ele><time>2016-12-15T23:30:50Z</time></trkpt>
<trkpt lat="46.59891" lon="6.35638"><ele></ele><time>2016-12-15T23:30:53Z</time></trkpt>
<trkpt lat="46.59904" lon="6.35626"><ele></ele><time>2016-12-15T23:30:56Z</time></trkpt>
<trkpt lat="46.59923" lon="6.35621"><ele></ele><time>2016-12-15T23:30:59Z</time></trkpt>
<trkpt lat="46.59932" lon="6.3562"><ele></ele><time>2016-12-15T23:31:2Z</time></trkpt>
<trkpt lat="46.59937" lon="6.35618"><ele></ele><time>2016-12-15T23:31:5Z</time></trkpt>
<trkpt lat="46.59953" lon="6.35607"><ele></ele><time>2016-12-15T23:31:8Z</time></trkpt>
<trkpt lat="46.59974" lon="6.35594"><ele></ele><time>2016-12-15T23:31:11Z</time></trkpt>
<trkpt lat="46.59988" lon="6.35577"><ele></ele><time>2016-12-15T23:31:14Z</time></trkpt>
<trkpt lat="46.6" lon="6.35561"><ele></ele><time>2016-12-15T23:31:17Z</time></trkpt>
<trkpt lat="46.60008" lon="6.35547"><ele></ele><time>2016-12-15T23:31:20Z</time></trkpt>
<trkpt lat="46.60009" lon="6.35543"><ele></ele><time>2016-12-15T23:31:23Z</time></trkpt>
<trkpt lat="46.60015" lon="6.3553"><ele></ele><time>2016-12-15T23:31:26Z</time></trkpt>
<trkpt lat="46.60025" lon="6.35508"><ele></ele><time>2016-12-15T23:31:29Z</time></trkpt>
<trkpt lat="46.60034" lon="6.35478"><ele></ele><time>2016-12-15T23:31:32Z</time></trkpt>
<trkpt lat="46.60046" lon="6.35475"><ele></ele><time>2016-12-15T23:31:35Z</time></trkpt>
<trkpt lat="46.60063" lon="6.35486"><ele></ele><time>2016-12-15T23:31:38Z</time></trkpt>
<trkpt lat="46.60072" lon="6.35497"><ele></ele><time>2016-12-15T23:31:41Z</time></trkpt>
<trkpt lat="46.60085" lon="6.35518"><ele></ele><time>2016-12-15T23:31:44Z</time></trkpt>
<trkpt lat="46.60097" lon="6.35531"><ele></ele><time>2016-12-15T23:31:47Z</time></trkpt>
<trkpt lat="46.60104" lon="6.35539"><ele></ele><time>2016-12-15T23:31:50Z</time></trkpt>
<trkpt lat="46.60109" lon="6.35544"><ele></ele><time>2016-12-15T23:31:53Z</time></trkpt>
<trkpt lat="46.60118" lon="6.35552"><ele></ele><time>2016-12-15T23:31:56Z</time></trkpt>
<trkpt lat="46.60135" lon="6.35563"><ele></ele><time>2016-12-15T23:31:59Z</time></trkpt>
<trkpt lat="46.60137" lon="6.35564"><ele></ele><time>2016-12-15T23:32:2Z</time></trkpt>
<trkpt lat="46.60141" lon="6.35566"><ele></ele><time>2016-12-15T23:32:5Z</time></trkpt>
<trkpt lat="46.60144" lon="6.35568"><ele></ele><time>2016-12-15T23:32:8Z</time></trkpt>
<trkpt lat="46.60153" lon="6.35566"><ele></ele><time>2016-12-15T23:32:11Z</time></trkpt>
<trkpt lat="46.60165" lon="6.35549"><ele></ele><time>2016-12-15T23:32:14Z</time></trkpt>
<trkpt lat="46.60185" lon="6.35539"><ele></ele><time>2016-12-15T23:32:17Z</time></trkpt>
<trkpt lat="46.60198" lon="6.35559"><ele></ele><time>2016-12-15T23:32:20Z</time></trkpt>
<trkpt lat="46.60201" lon="6.35566"><ele></ele><time>2016-12-15T23:32:23Z</time></trkpt>
<trkpt lat="46.60216" lon="6.35572"><ele></ele><time>2016-12-15T23:32:26Z</time></trkpt>
<trkpt lat="46.60218" lon="6.35571"><ele></ele><time>2016-12-15T23:32:29Z</time></trkpt>
<trkpt lat="46.60225" lon="6.3557"><ele></ele><time>2016-12-15T23:32:32Z</time></trkpt>
<trkpt lat="46.60236" lon="6.35572"><ele></ele><time>2016-12-15T23:32:35Z</time></trkpt>
<trkpt lat="46.60236" lon="6.35572"><ele></ele><time>2016-12-15T23:32:38Z</time></trkpt>
<trkpt lat="46.60237" lon="6.35571"><ele></ele><time>2016-12-15T23:32:41Z</time></trkpt>
<trkpt lat="46.60239" lon="6.35573"><ele></ele><time>2016-12-15T23:32:44Z</time></trkpt>
<trkpt lat="46.60239" lon="6.35574"><ele></ele><time>2016-12-15T23:32:47Z</time></trkpt>
<trkpt lat="46.60233" lon="6.35571"><ele></ele><time>2016-12-15T23:32:50Z</time></trkpt>
<trkpt lat="46.60232" lon="6.35569"><ele></ele><time>2016-12-15T23:32:53Z</time></trkpt>
<trkpt lat="46.60231" lon="6.35568"><ele></ele><time>2016-12-15T23:32:56Z</time></trkpt>
<trkpt lat="46.60232" lon="6.35568"><ele></ele><time>2016-12-15T23:32:59Z</time></trkpt>
<trkpt lat="46.60232" lon="6.35568"><ele></ele><time>2016-12-15T23:33:2Z</time></trkpt>
<trkpt lat="46.60235" lon="6.35575"><ele></ele><time>2016-12-15T23:33:5Z</time></trkpt>
<trkpt lat="46.60237" lon="6.35575"><ele></ele><time>2016-12-15T23:33:8Z</time></trkpt>
<trkpt lat="46.6024" lon="6.35575"><ele></ele><time>2016-12-15T23:33:11Z</time></trkpt>
<trkpt lat="46.6024" lon="6.35575"><ele></ele><time>2016-12-15T23:33:14Z</time></trkpt>
<trkpt lat="46.60241" lon="6.35575"><ele></ele><time>2016-12-15T23:33:17Z</time></trkpt>
<trkpt lat="46.60227" lon="6.35568"><ele></ele><time>2016-12-15T23:33:20Z</time></trkpt>
<trkpt lat="46.60226" lon="6.35565"><ele></ele><time>2016-12-15T23:33:23Z</time></trkpt>
<trkpt lat="46.60224" lon="6.35563"><ele></ele><time>2016-12-15T23:33:26Z</time></trkpt>
<trkpt lat="46.60221" lon="6.35557"><ele></ele><time>2016-12-15T23:33:29Z</time></trkpt>
<trkpt lat="46.60217" lon="6.35546"><ele></ele><time>2016-12-15T23:33:32Z</time></trkpt>
<trkpt lat="46.60212" lon="6.35536"><ele></ele><time>2016-12-15T23:33:35Z</time></trkpt>
<trkpt lat="46.60211" lon="6.35531"><ele></ele><time>2016-12-15T23:33:38Z</time></trkpt>
<trkpt lat="46.6021" lon="6.3553"><ele></ele><time>2016-12-15T23:33:41Z</time></trkpt>
<trkpt lat="46.60205" lon="6.35519"><ele></ele><time>2016-12-15T23:33:44Z</time></trkpt>
<trkpt lat="46.60203" lon="6.3551"><ele></ele><time>2016-12-15T23:33:47Z</time></trkpt>
<trkpt lat="46.60199" lon="6.35506"><ele></ele><time>2016-12-15T23:33:50Z</time></trkpt>
<trkpt lat="46.60198" lon="6.35505"><ele></ele><time>2016-12-15T23:33:53Z</time></trkpt>
<trkpt lat="46.60194" lon="6.35499"><ele></ele><time>2016-12-15T23:33:56Z</time></trkpt>
<trkpt lat="46.60183" lon="6.35491"><ele></ele><time>2016-12-15T23:33:59Z</time></trkpt>
<trkpt lat="46.60171" lon="6.35484"><ele></ele><time>2016-12-15T23:34:2Z</time></trkpt>
<trkpt lat="46.60164" lon="6.35477"><ele></ele><time>2016-12-15T23:34:5Z</time></trkpt>
<trkpt lat="46.60155" lon="6.35454"><ele></ele><time>2016-12-15T23:34:8Z</time></trkpt>
<trkpt lat="46.60154" lon="6.35429"><ele></ele><time>2016-12-15T23:34:11Z</time></trkpt>
<trkpt lat="46.60154" lon="6.35425"><ele></ele><time>2016-12-15T23:34:14Z</time></trkpt>
<trkpt lat="46.60154" lon="6.35419"><ele></ele><time>2016-12-15T23:34:17Z</time></trkpt>
<trkpt lat="46.60153" lon="6.35393"><ele></ele><time>2016-12-15T23:34:20Z</time></trkpt>
<trkpt lat="46.60152" lon="6.35389"><ele></ele><time>2016-12-15T23:34:23Z</time></trkpt>
<trkpt lat="46.60152" lon="6.35382"><ele></ele><time>2016-12-15T23:34:26Z</time></trkpt>
<trkpt lat="46.60143" lon="6.35359"><ele></ele><time>2016-12-15T23:34:29Z</time></trkpt>
<trkpt lat="46.6014" lon="6.35354"><ele></ele><time>2016-12-15T23:34:32Z</time></trkpt>
<trkpt lat="46.60136" lon="6.35344"><ele></ele><time>2016-12-15T23:34:35Z</time></trkpt>
<trkpt lat="46.60133" lon="6.35341"><ele></ele><time>2016-12-15T23:34:38Z</time></trkpt>
<trkpt lat="46.60131" lon="6.35325"><ele></ele><time>2016-12-15T23:34:41Z</time></trkpt>
<trkpt lat="46.6013" lon="6.3532"><ele></ele><time>2016-12-15T23:34:44Z</time></trkpt>
<trkpt lat="46.60129" lon="6.35317"><ele></ele><time>2016-12-15T23:34:47Z</time></trkpt>
<trkpt lat="46.60129" lon="6.35311"><ele></ele><time>2016-12-15T23:34:50Z</time></trkpt>
<trkpt lat="46.60129" lon="6.35308"><ele></ele><time>2016-12-15T23:34:53Z</time></trkpt>
<trkpt lat="46.60127" lon="6.35301"><ele></ele><time>2016-12-15T23:34:56Z</time></trkpt>
<trkpt lat="46.60125" lon="6.35296"><ele></ele><time>2016-12-15T23:34:59Z</time></trkpt>
<trkpt lat="46.60124" lon="6.3529"><ele></ele><time>2016-12-15T23:35:2Z</time></trkpt>
<trkpt lat="46.60115" lon="6.35276"><ele></ele><time>2016-12-15T23:35:5Z</time></trkpt>
<trkpt lat="46.60112" lon="6.35275"><ele></ele><time>2016-12-15T23:35:8Z</time></trkpt>
<trkpt lat="46.60096" lon="6.35273"><ele></ele><time>2016-12-15T23:35:11Z</time></trkpt>
<trkpt lat="46.60093" lon="6.35273"><ele></ele><time>2016-12-15T23:35:14Z</time></trkpt>
<trkpt lat="46.60081" lon="6.35271"><ele></ele><time>2016-12-15T23:35:17Z</time></trkpt>
<trkpt lat="46.60074" lon="6.35265"><ele></ele><time>2016-12-15T23:35:20Z</time></trkpt>
<trkpt lat="46.60064" lon="6.35251"><ele></ele><time>2016-12-15T23:35:23Z</time></trkpt>
<trkpt lat="46.60048" lon="6.35221"><ele></ele><time>2016-12-15T23:35:26Z</time></trkpt>
<trkpt lat="46.60038" lon="6.35204"><ele></ele><time>2016-12-15T23:35:29Z</time></trkpt>
<trkpt lat="46.60031" lon="6.35188"><ele></ele><time>2016-12-15T23:35:32Z</time></trkpt>
<trkpt lat="46.6002" lon="6.35178"><ele></ele><time>2016-12-15T23:35:35Z</time></trkpt>
<trkpt lat="46.6001" lon="6.35176"><ele></ele><time>2016-12-15T23:35:38Z</time></trkpt>
<trkpt lat="46.60004" lon="6.35177"><ele></ele><time>2016-12-15T23:35:41Z</time></trkpt>
<trkpt lat="46.60002" lon="6.35178"><ele></ele><time>2016-12-15T23:35:44Z</time></trkpt>
<trkpt lat="46.59996" lon="6.35179"><ele></ele><time>2016-12-15T23:35:47Z</time></trkpt>
<trkpt lat="46.59985" lon="6.35181"><ele></ele><time>2016-12-15T23:35:50Z</time></trkpt>
<trkpt lat="46.59966" lon="6.35187"><ele></ele><time>2016-12-15T23:35:53Z</time></trkpt>
<trkpt lat="46.59948" lon="6.35199"><ele></ele><time>2016-12-15T23:35:56Z</time></trkpt>
<trkpt lat="46.5994" lon="6.35204"><ele></ele><time>2016-12-15T23:35:59Z</time></trkpt>
<trkpt lat="46.59928" lon="6.3521"><ele></ele><time>2016-12-15T23:36:2Z</time></trkpt>
<trkpt lat="46.59915" lon="6.35217"><ele></ele><time>2016-12-15T23:36:5Z</time></trkpt>
<trkpt lat="46.59897" lon="6.35224"><ele></ele><time>2016-12-15T23:36:8Z</time></trkpt>
<trkpt lat="46.59882" lon="6.35228"><ele></ele><time>2016-12-15T23:36:11Z</time></trkpt>
<trkpt lat="46.59864" lon="6.35234"><ele></ele><time>2016-12-15T23:36:14Z</time></trkpt>
<trkpt lat="46.59841" lon="6.35245"><ele></ele><time>2016-12-15T23:36:17Z</time></trkpt>
<trkpt lat="46.59829" lon="6.35251"><ele></ele><time>2016-12-15T23:36:20Z</time></trkpt>
<trkpt lat="46.59823" lon="6.35257"><ele></ele><time>2016-12-15T23:36:23Z</time></trkpt>
<trkpt lat="46.59821" lon="6.35258"><ele></ele><time>2016-12-15T23:36:26Z</time></trkpt>
<trkpt lat="46.5982" lon="6.35259"><ele></ele><time>2016-12-15T23:36:29Z</time></trkpt>
<trkpt lat="46.59815" lon="6.35263"><ele></ele><time>2016-12-15T23:36:32Z</time></trkpt>
<trkpt lat="46.59812" lon="6.35265"><ele></ele><time>2016-12-15T23:36:35Z</time></trkpt>
<trkpt lat="46.59805" lon="6.3527"><ele></ele><time>2016-12-15T23:36:38Z</time></trkpt>
<trkpt lat="46.59799" lon="6.35276"><ele></ele><time>2016-12-15T23:36:41Z</time></trkpt>
<trkpt lat="46.59796" lon="6.35279"><ele></ele><time>2016-12-15T23:36:44Z</time></trkpt>
<trkpt lat="46.59791" lon="6.35284"><ele></ele><time>2016-12-15T23:36:47Z</time></trkpt>
<trkpt lat="46.59775" lon="6.35298"><ele></ele><time>2016-12-15T23:36:50Z</time></trkpt>
<trkpt lat="46.59767" lon="6.35303"><ele></ele><time>2016-12-15T23:36:53Z</time></trkpt>
<trkpt lat="46.59752" lon="6.35317"><ele></ele><time>2016-12-15T23:36:56Z</time></trkpt>
<trkpt lat="46.59747" lon="6.35322"><ele></ele><time>2016-12-15T23:36:59Z</time></trkpt>
<trkpt lat="46.59729" lon="6.3533"><ele></ele><time>2016-12-15T23:37:2Z</time></trkpt>
<trkpt lat="46.59716" lon="6.35327"><ele></ele><time>2016-12-15T23:37:5Z</time></trkpt>
<trkpt lat="46.59703" lon="6.35319"><ele></ele><time>2016-12-15T23:37:8Z</time></trkpt>
<trkpt lat="46.59698" lon="6.35316"><ele></ele><time>2016-12-15T23:37:11Z</time></trkpt>
<trkpt lat="46.59691" lon="6.3531"><ele></ele><time>2016-12-15T23:37:14Z</time></trkpt>
<trkpt lat="46.59679" lon="6.35299"><ele></ele><time>2016-12-15T23:37:17Z</time></trkpt>
<trkpt lat="46.59676" lon="6.35295"><ele></ele><time>2016-12-15T23:37:20Z</time></trkpt>
<trkpt lat="46.59668" lon="6.35286"><ele></ele><time>2016-12-15T23:37:23Z</time></trkpt>
<trkpt lat="46.59652" lon="6.35269"><ele></ele><time>2016-12-15T23:37:26Z</time></trkpt>
<trkpt lat="46.59638" lon="6.35256"><ele></ele><time>2016-12-15T23:37:29Z</time></trkpt>
<trkpt lat="46.59631" lon="6.35251"><ele></ele><time>2016-12-15T23:37:32Z</time></trkpt>
<trkpt lat="46.59615" lon="6.35237"><ele></ele><time>2016-12-15T23:37:35Z</time></trkpt>
<trkpt lat="46.59608" lon="6.35231"><ele></ele><time>2016-12-15T23:37:38Z</time></trkpt>
<trkpt lat="46.59595" lon="6.35214"><ele></ele><time>2016-12-15T23:37:41Z</time></trkpt>
<trkpt lat="46.59589" lon="6.35208"><ele></ele><time>2016-12-15T23:37:44Z</time></trkpt>
<trkpt lat="46.59577" lon="6.35186"><ele></ele><time>2016-12-15T23:37:47Z</time></trkpt>
<trkpt lat="46.59573" lon="6.3518"><ele></ele><time>2016-12-15T23:37:50Z</time></trkpt>
<trkpt lat="46.59563" lon="6.35162"><ele></ele><time>2016-12-15T23:37:53Z</time></trkpt>
<trkpt lat="46.5955" lon="6.35139"><ele></ele><time>2016-12-15T23:37:56Z</time></trkpt>
<trkpt lat="46.59546" lon="6.35132"><ele></ele><time>2016-12-15T23:37:59Z</time></trkpt>
<trkpt lat="46.59543" lon="6.35129"><ele></ele><time>2016-12-15T23:38:2Z</time></trkpt>
<trkpt lat="46.5953" lon="6.35111"><ele></ele><time>2016-12-15T23:38:5Z</time></trkpt>
<trkpt lat="46.59521" lon="6.35097"><ele></ele><time>2016-12-15T23:38:8Z</time></trkpt>
<trkpt lat="46.5951" lon="6.35074"><ele></ele><time>2016-12-15T23:38:11Z</time></trkpt>
<trkpt lat="46.59506" lon="6.35065"><ele></ele><time>2016-12-15T23:38:14Z</time></trkpt>
<trkpt lat="46.595" lon="6.35054"><ele></ele><time>2016-12-15T23:38:17Z</time></trkpt>
<trkpt lat="46.595" lon="6.3505"><ele></ele><time>2016-12-15T23:38:20Z</time></trkpt>
<trkpt lat="46.59496" lon="6.35037"><ele></ele><time>2016-12-15T23:38:23Z</time></trkpt>
<trkpt lat="46.59495" lon="6.35031"><ele></ele><time>2016-12-15T23:38:26Z</time></trkpt>
<trkpt lat="46.59491" lon="6.35016"><ele></ele><time>2016-12-15T23:38:29Z</time></trkpt>
<trkpt lat="46.59488" lon="6.34989"><ele></ele><time>2016-12-15T23:38:32Z</time></trkpt>
<trkpt lat="46.59488" lon="6.34959"><ele></ele><time>2016-12-15T23:38:35Z</time></trkpt>
<trkpt lat="46.59489" lon="6.34942"><ele></ele><time>2016-12-15T23:38:38Z</time></trkpt>
<trkpt lat="46.59488" lon="6.34915"><ele></ele><time>2016-12-15T23:38:41Z</time></trkpt>
<trkpt lat="46.59487" lon="6.34904"><ele></ele><time>2016-12-15T23:38:44Z</time></trkpt>
<trkpt lat="46.59483" lon="6.34888"><ele></ele><time>2016-12-15T23:38:47Z</time></trkpt>
<trkpt lat="46.59479" lon="6.34879"><ele></ele><time>2016-12-15T23:38:50Z</time></trkpt>
<trkpt lat="46.59467" lon="6.34859"><ele></ele><time>2016-12-15T23:38:53Z</time></trkpt>
<trkpt lat="46.59458" lon="6.34849"><ele></ele><time>2016-12-15T23:38:56Z</time></trkpt>
<trkpt lat="46.59454" lon="6.3484"><ele></ele><time>2016-12-15T23:38:59Z</time></trkpt>
<trkpt lat="46.59449" lon="6.34834"><ele></ele><time>2016-12-15T23:39:2Z</time></trkpt>
<trkpt lat="46.59441" lon="6.34819"><ele></ele><time>2016-12-15T23:39:5Z</time></trkpt>
<trkpt lat="46.59431" lon="6.34798"><ele></ele><time>2016-12-15T23:39:8Z</time></trkpt>
<trkpt lat="46.59429" lon="6.34791"><ele></ele><time>2016-12-15T23:39:11Z</time></trkpt>
<trkpt lat="46.59423" lon="6.34786"><ele></ele><time>2016-12-15T23:39:14Z</time></trkpt>
<trkpt lat="46.59419" lon="6.3478"><ele></ele><time>2016-12-15T23:39:17Z</time></trkpt>
<trkpt lat="46.59416" lon="6.34778"><ele></ele><time>2016-12-15T23:39:20Z</time></trkpt>
<trkpt lat="46.59414" lon="6.34776"><ele></ele><time>2016-12-15T23:39:23Z</time></trkpt>
<trkpt lat="46.59407" lon="6.34767"><ele></ele><time>2016-12-15T23:39:26Z</time></trkpt>
<trkpt lat="46.59401" lon="6.34762"><ele></ele><time>2016-12-15T23:39:29Z</time></trkpt>
<trkpt lat="46.59393" lon="6.34748"><ele></ele><time>2016-12-15T23:39:32Z</time></trkpt>
<trkpt lat="46.59386" lon="6.34737"><ele></ele><time>2016-12-15T23:39:35Z</time></trkpt>
<trkpt lat="46.59375" lon="6.34716"><ele></ele><time>2016-12-15T23:39:38Z</time></trkpt>
<trkpt lat="46.59373" lon="6.34709"><ele></ele><time>2016-12-15T23:39:41Z</time></trkpt>
<trkpt lat="46.59366" lon="6.34685"><ele></ele><time>2016-12-15T23:39:44Z</time></trkpt>
<trkpt lat="46.59364" lon="6.34681"><ele></ele><time>2016-12-15T23:39:47Z</time></trkpt>
<trkpt lat="46.59361" lon="6.34674"><ele></ele><time>2016-12-15T23:39:50Z</time></trkpt>
<trkpt lat="46.59355" lon="6.34652"><ele></ele><time>2016-12-15T23:39:53Z</time></trkpt>
<trkpt lat="46.59347" lon="6.34632"><ele></ele><time>2016-12-15T23:39:56Z</time></trkpt>
<trkpt lat="46.59339" lon="6.34617"><ele></ele><time>2016-12-15T23:39:59Z</time></trkpt>
<trkpt lat="46.59334" lon="6.34611"><ele></ele><time>2016-12-15T23:40:2Z</time></trkpt>
<trkpt lat="46.5933" lon="6.34602"><ele></ele><time>2016-12-15T23:40:5Z</time></trkpt>
<trkpt lat="46.59323" lon="6.34594"><ele></ele><time>2016-12-15T23:40:8Z</time></trkpt>
<trkpt lat="46.59312" lon="6.34572"><ele></ele><time>2016-12-15T23:40:11Z</time></trkpt>
<trkpt lat="46.59311" lon="6.3457"><ele></ele><time>2016-12-15T23:40:14Z</time></trkpt>
<trkpt lat="46.59305" lon="6.34563"><ele></ele><time>2016-12-15T23:40:17Z</time></trkpt>
<trkpt lat="46.59293" lon="6.34542"><ele></ele><time>2016-12-15T23:40:20Z</time></trkpt>
<trkpt lat="46.59282" lon="6.34522"><ele></ele><time>2016-12-15T23:40:23Z</time></trkpt>
<trkpt lat="46.59273" lon="6.34498"><ele></ele><time>2016-12-15T23:40:26Z</time></trkpt>
<trkpt lat="46.59265" lon="6.34478"><ele></ele><time>2016-12-15T23:40:29Z</time></trkpt>
<trkpt lat="46.59262" lon="6.34469"><ele></ele><time>2016-12-15T23:40:32Z</time></trkpt>
<trkpt lat="46.59261" lon="6.34468"><ele></ele><time>2016-12-15T23:40:35Z</time></trkpt>
<trkpt lat="46.59256" lon="6.34458"><ele></ele><time>2016-12-15T23:40:38Z</time></trkpt>
<trkpt lat="46.59255" lon="6.34455"><ele></ele><time>2016-12-15T23:40:41Z</time></trkpt>
<trkpt lat="46.59244" lon="6.34432"><ele></ele><time>2016-12-15T23:40:44Z</time></trkpt>
<trkpt lat="46.59227" lon="6.34408"><ele></ele><time>2016-12-15T23:40:47Z</time></trkpt>
<trkpt lat="46.59218" lon="6.34388"><ele></ele><time>2016-12-15T23:40:50Z</time></trkpt>
<trkpt lat="46.59212" lon="6.34376"><ele></ele><time>2016-12-15T23:40:53Z</time></trkpt>
<trkpt lat="46.59202" lon="6.34354"><ele></ele><time>2016-12-15T23:40:56Z</time></trkpt>
<trkpt lat="46.59193" lon="6.34336"><ele></ele><time>2016-12-15T23:40:59Z</time></trkpt>
<trkpt lat="46.59181" lon="6.34313"><ele></ele><time>2016-12-15T23:41:2Z</time></trkpt>
<trkpt lat="46.59175" lon="6.34288"><ele></ele><time>2016-12-15T23:41:5Z</time></trkpt>
<trkpt lat="46.59167" lon="6.34264"><ele></ele><time>2016-12-15T23:41:8Z</time></trkpt>
<trkpt lat="46.59156" lon="6.34228"><ele></ele><time>2016-12-15T23:41:11Z</time></trkpt>
<trkpt lat="46.59147" lon="6.34204"><ele></ele><time>2016-12-15T23:41:14Z</time></trkpt>
<trkpt lat="46.5914" lon="6.34196"><ele></ele><time>2016-12-15T23:41:17Z</time></trkpt>
<trkpt lat="46.59131" lon="6.34183"><ele></ele><time>2016-12-15T23:41:20Z</time></trkpt>
<trkpt lat="46.59115" lon="6.34167"><ele></ele><time>2016-12-15T23:41:23Z</time></trkpt>
<trkpt lat="46.59098" lon="6.34156"><ele></ele><time>2016-12-15T23:41:26Z</time></trkpt>
<trkpt lat="46.59083" lon="6.3414"><ele></ele><time>2016-12-15T23:41:29Z</time></trkpt>
<trkpt lat="46.59069" lon="6.34108"><ele></ele><time>2016-12-15T23:41:32Z</time></trkpt>
<trkpt lat="46.59057" lon="6.34088"><ele></ele><time>2016-12-15T23:41:35Z</time></trkpt>
<trkpt lat="46.59048" lon="6.34066"><ele></ele><time>2016-12-15T23:41:38Z</time></trkpt>
<trkpt lat="46.59037" lon="6.34043"><ele></ele><time>2016-12-15T23:41:41Z</time></trkpt>
<trkpt lat="46.59034" lon="6.34018"><ele></ele><time>2016-12-15T23:41:44Z</time></trkpt>
<trkpt lat="46.59037" lon="6.34013"><ele></ele><time>2016-12-15T23:41:47Z</time></trkpt>
<trkpt lat="46.59053" lon="6.3402"><ele></ele><time>2016-12-15T23:41:50Z</time></trkpt>
<trkpt lat="46.59075" lon="6.34031"><ele></ele><time>2016-12-15T23:41:53Z</time></trkpt>
<trkpt lat="46.59089" lon="6.34012"><ele></ele><time>2016-12-15T23:41:56Z</time></trkpt>
<trkpt lat="46.59101" lon="6.33989"><ele></ele><time>2016-12-15T23:41:59Z</time></trkpt>
<trkpt lat="46.5911" lon="6.33966"><ele></ele><time>2016-12-15T23:42:2Z</time></trkpt>
<trkpt lat="46.59112" lon="6.33957"><ele></ele><time>2016-12-15T23:42:5Z</time></trkpt>
<trkpt lat="46.59117" lon="6.33929"><ele></ele><time>2016-12-15T23:42:8Z</time></trkpt>
<trkpt lat="46.59118" lon="6.33925"><ele></ele><time>2016-12-15T23:42:11Z</time></trkpt>
<trkpt lat="46.59114" lon="6.33915"><ele></ele><time>2016-12-15T23:42:14Z</time></trkpt>
<trkpt lat="46.59109" lon="6.33905"><ele></ele><time>2016-12-15T23:42:17Z</time></trkpt>
<trkpt lat="46.59101" lon="6.3388"><ele></ele><time>2016-12-15T23:42:20Z</time></trkpt>
<trkpt lat="46.59099" lon="6.33873"><ele></ele><time>2016-12-15T23:42:23Z</time></trkpt>
<trkpt lat="46.59098" lon="6.33873"><ele></ele><time>2016-12-15T23:42:26Z</time></trkpt>
<trkpt lat="46.59095" lon="6.33864"><ele></ele><time>2016-12-15T23:42:29Z</time></trkpt>
<trkpt lat="46.59091" lon="6.33853"><ele></ele><time>2016-12-15T23:42:32Z</time></trkpt>
<trkpt lat="46.59091" lon="6.33851"><ele></ele><time>2016-12-15T23:42:35Z</time></trkpt>
<trkpt lat="46.59091" lon="6.33848"><ele></ele><time>2016-12-15T23:42:38Z</time></trkpt>
<trkpt lat="46.5909" lon="6.33845"><ele></ele><time>2016-12-15T23:42:41Z</time></trkpt>
<trkpt lat="46.59087" lon="6.33833"><ele></ele><time>2016-12-15T23:42:44Z</time></trkpt>
<trkpt lat="46.59085" lon="6.33829"><ele></ele><time>2016-12-15T23:42:47Z</time></trkpt>
<trkpt lat="46.59087" lon="6.33821"><ele></ele><time>2016-12-15T23:42:50Z</time></trkpt>
<trkpt lat="46.59084" lon="6.3381"><ele></ele><time>2016-12-15T23:42:53Z</time></trkpt>
<trkpt lat="46.59086" lon="6.33793"><ele></ele><time>2016-12-15T23:42:56Z</time></trkpt>
<trkpt lat="46.59088" lon="6.33783"><ele></ele><time>2016-12-15T23:42:59Z</time></trkpt>
<trkpt lat="46.5909" lon="6.33777"><ele></ele><time>2016-12-15T23:43:2Z</time></trkpt>
<trkpt lat="46.59094" lon="6.33754"><ele></ele><time>2016-12-15T23:43:5Z</time></trkpt>
<trkpt lat="46.59097" lon="6.33731"><ele></ele><time>2016-12-15T23:43:8Z</time></trkpt>
<trkpt lat="46.59098" lon="6.33723"><ele></ele><time>2016-12-15T23:43:11Z</time></trkpt>
<trkpt lat="46.59099" lon="6.33698"><ele></ele><time>2016-12-15T23:43:14Z</time></trkpt>
<trkpt lat="46.59099" lon="6.3369"><ele></ele><time>2016-12-15T23:43:17Z</time></trkpt>
<trkpt lat="46.59099" lon="6.33685"><ele></ele><time>2016-12-15T23:43:20Z</time></trkpt>
<trkpt lat="46.59098" lon="6.33674"><ele></ele><time>2016-12-15T23:43:23Z</time></trkpt>
<trkpt lat="46.59098" lon="6.3367"><ele></ele><time>2016-12-15T23:43:26Z</time></trkpt>
<trkpt lat="46.59097" lon="6.33656"><ele></ele><time>2016-12-15T23:43:29Z</time></trkpt>
<trkpt lat="46.59093" lon="6.3363"><ele></ele><time>2016-12-15T23:43:32Z</time></trkpt>
<trkpt lat="46.59089" lon="6.33611"><ele></ele><time>2016-12-15T23:43:35Z</time></trkpt>
<trkpt lat="46.59087" lon="6.33603"><ele></ele><time>2016-12-15T23:43:38Z</time></trkpt>
<trkpt lat="46.59078" lon="6.33581"><ele></ele><time>2016-12-15T23:43:41Z</time></trkpt>
<trkpt lat="46.59076" lon="6.33575"><ele></ele><time>2016-12-15T23:43:44Z</time></trkpt>
<trkpt lat="46.59073" lon="6.33567"><ele></ele><time>2016-12-15T23:43:47Z</time></trkpt>
<trkpt lat="46.59071" lon="6.33565"><ele></ele><time>2016-12-15T23:43:50Z</time></trkpt>
<trkpt lat="46.59064" lon="6.33541"><ele></ele><time>2016-12-15T23:43:53Z</time></trkpt>
<trkpt lat="46.59063" lon="6.33528"><ele></ele><time>2016-12-15T23:43:56Z</time></trkpt>
<trkpt lat="46.59065" lon="6.33518"><ele></ele><time>2016-12-15T23:43:59Z</time></trkpt>
<trkpt lat="46.59069" lon="6.33506"><ele></ele><time>2016-12-15T23:44:2Z</time></trkpt>
<trkpt lat="46.5907" lon="6.33483"><ele></ele><time>2016-12-15T23:44:5Z</time></trkpt>
<trkpt lat="46.5907" lon="6.33479"><ele></ele><time>2016-12-15T23:44:8Z</time></trkpt>
<trkpt lat="46.59068" lon="6.33471"><ele></ele><time>2016-12-15T23:44:11Z</time></trkpt>
<trkpt lat="46.59067" lon="6.33469"><ele></ele><time>2016-12-15T23:44:14Z</time></trkpt>
<trkpt lat="46.59058" lon="6.33451"><ele></ele><time>2016-12-15T23:44:17Z</time></trkpt>
<trkpt lat="46.59051" lon="6.3343"><ele></ele><time>2016-12-15T23:44:20Z</time></trkpt>
<trkpt lat="46.5905" lon="6.33418"><ele></ele><time>2016-12-15T23:44:23Z</time></trkpt>
<trkpt lat="46.59055" lon="6.33399"><ele></ele><time>2016-12-15T23:44:26Z</time></trkpt>
<trkpt lat="46.59056" lon="6.3339"><ele></ele><time>2016-12-15T23:44:29Z</time></trkpt>
<trkpt lat="46.59057" lon="6.33381"><ele></ele><time>2016-12-15T23:44:32Z</time></trkpt>
<trkpt lat="46.59058" lon="6.33373"><ele></ele><time>2016-12-15T23:44:35Z</time></trkpt>
<trkpt lat="46.59058" lon="6.33358"><ele></ele><time>2016-12-15T23:44:38Z</time></trkpt>
<trkpt lat="46.59064" lon="6.33343"><ele></ele><time>2016-12-15T23:44:41Z</time></trkpt>
<trkpt lat="46.59068" lon="6.33336"><ele></ele><time>2016-12-15T23:44:44Z</time></trkpt>
<trkpt lat="46.59083" lon="6.33318"><ele></ele><time>2016-12-15T23:44:47Z</time></trkpt>
<trkpt lat="46.59087" lon="6.33302"><ele></ele><time>2016-12-15T23:44:50Z</time></trkpt>
<trkpt lat="46.59086" lon="6.33299"><ele></ele><time>2016-12-15T23:44:53Z</time></trkpt>
<trkpt lat="46.59075" lon="6.33276"><ele></ele><time>2016-12-15T23:44:56Z</time></trkpt>
<trkpt lat="46.59065" lon="6.33253"><ele></ele><time>2016-12-15T23:44:59Z</time></trkpt>
<trkpt lat="46.59056" lon="6.33227"><ele></ele><time>2016-12-15T23:45:2Z</time></trkpt>
<trkpt lat="46.59047" lon="6.33202"><ele></ele><time>2016-12-15T23:45:5Z</time></trkpt>
<trkpt lat="46.59047" lon="6.33176"><ele></ele><time>2016-12-15T23:45:8Z</time></trkpt>
<trkpt lat="46.59057" lon="6.33154"><ele></ele><time>2016-12-15T23:45:11Z</time></trkpt>
<trkpt lat="46.59063" lon="6.33144"><ele></ele><time>2016-12-15T23:45:14Z</time></trkpt>
<trkpt lat="46.59068" lon="6.33135"><ele></ele><time>2016-12-15T23:45:17Z</time></trkpt>
<trkpt lat="46.59067" lon="6.33103"><ele></ele><time>2016-12-15T23:45:20Z</time></trkpt>
<trkpt lat="46.5907" lon="6.33079"><ele></ele><time>2016-12-15T23:45:23Z</time></trkpt>
<trkpt lat="46.59072" lon="6.33065"><ele></ele><time>2016-12-15T23:45:26Z</time></trkpt>
<trkpt lat="46.59072" lon="6.33051"><ele></ele><time>2016-12-15T23:45:29Z</time></trkpt>
<trkpt lat="46.59072" lon="6.33049"><ele></ele><time>2016-12-15T23:45:32Z</time></trkpt>
<trkpt lat="46.59068" lon="6.33023"><ele></ele><time>2016-12-15T23:45:35Z</time></trkpt>
<trkpt lat="46.59074" lon="6.32997"><ele></ele><time>2016-12-15T23:45:38Z</time></trkpt>
<trkpt lat="46.59087" lon="6.32967"><ele></ele><time>2016-12-15T23:45:41Z</time></trkpt>
<trkpt lat="46.59101" lon="6.32948"><ele></ele><time>2016-12-15T23:45:44Z</time></trkpt>
<trkpt lat="46.59113" lon="6.32926"><ele></ele><time>2016-12-15T23:45:47Z</time></trkpt>
<trkpt lat="46.59121" lon="6.32916"><ele></ele><time>2016-12-15T23:45:50Z</time></trkpt>
<trkpt lat="46.59131" lon="6.32892"><ele></ele><time>2016-12-15T23:45:53Z</time></trkpt>
<trkpt lat="46.59139" lon="6.32879"><ele></ele><time>2016-12-15T23:45:56Z</time></trkpt>
<trkpt lat="46.59154" lon="6.32858"><ele></ele><time>2016-12-15T23:45:59Z</time></trkpt>
<trkpt lat="46.59166" lon="6.32862"><ele></ele><time>2016-12-15T23:46:2Z</time></trkpt>
<trkpt lat="46.59167" lon="6.32865"><ele></ele><time>2016-12-15T23:46:5Z</time></trkpt>
<trkpt lat="46.59164" lon="6.32892"><ele></ele><time>2016-12-15T23:46:8Z</time></trkpt>
<trkpt lat="46.59153" lon="6.32914"><ele></ele><time>2016-12-15T23:46:11Z</time></trkpt>
<trkpt lat="46.59148" lon="6.32936"><ele></ele><time>2016-12-15T23:46:14Z</time></trkpt>
<trkpt lat="46.59146" lon="6.32955"><ele></ele><time>2016-12-15T23:46:17Z</time></trkpt>
<trkpt lat="46.59144" lon="6.32983"><ele></ele><time>2016-12-15T23:46:20Z</time></trkpt>
<trkpt lat="46.59152" lon="6.33006"><ele></ele><time>2016-12-15T23:46:23Z</time></trkpt>
<trkpt lat="46.59166" lon="6.33022"><ele></ele><time>2016-12-15T23:46:26Z</time></trkpt>
<trkpt lat="46.59187" lon="6.33041"><ele></ele><time>2016-12-15T23:46:29Z</time></trkpt>
<trkpt lat="46.59205" lon="6.33051"><ele></ele><time>2016-12-15T23:46:32Z</time></trkpt>
<trkpt lat="46.59217" lon="6.33062"><ele></ele><time>2016-12-15T23:46:35Z</time></trkpt>
<trkpt lat="46.59234" lon="6.33048"><ele></ele><time>2016-12-15T23:46:38Z</time></trkpt>
<trkpt lat="46.59237" lon="6.3304"><ele></ele><time>2016-12-15T23:46:41Z</time></trkpt>
<trkpt lat="46.59241" lon="6.33034"><ele></ele><time>2016-12-15T23:46:44Z</time></trkpt>
<trkpt lat="46.59258" lon="6.33032"><ele></ele><time>2016-12-15T23:46:47Z</time></trkpt>
<trkpt lat="46.59272" lon="6.33051"><ele></ele><time>2016-12-15T23:46:50Z</time></trkpt>
<trkpt lat="46.59288" lon="6.33066"><ele></ele><time>2016-12-15T23:46:53Z</time></trkpt>
<trkpt lat="46.593" lon="6.33087"><ele></ele><time>2016-12-15T23:46:56Z</time></trkpt>
<trkpt lat="46.59313" lon="6.33119"><ele></ele><time>2016-12-15T23:46:59Z</time></trkpt>
<trkpt lat="46.5933" lon="6.3313"><ele></ele><time>2016-12-15T23:47:2Z</time></trkpt>
<trkpt lat="46.59349" lon="6.33128"><ele></ele><time>2016-12-15T23:47:5Z</time></trkpt>
<trkpt lat="46.59355" lon="6.33133"><ele></ele><time>2016-12-15T23:47:8Z</time></trkpt>
<trkpt lat="46.59371" lon="6.33148"><ele></ele><time>2016-12-15T23:47:11Z</time></trkpt>
<trkpt lat="46.5939" lon="6.33149"><ele></ele><time>2016-12-15T23:47:14Z</time></trkpt>
<trkpt lat="46.59409" lon="6.33155"><ele></ele><time>2016-12-15T23:47:17Z</time></trkpt>
<trkpt lat="46.59428" lon="6.33166"><ele></ele><time>2016-12-15T23:47:20Z</time></trkpt>
<trkpt lat="46.59449" lon="6.33189"><ele></ele><time>2016-12-15T23:47:23Z</time></trkpt>
<trkpt lat="46.59459" lon="6.33211"><ele></ele><time>2016-12-15T23:47:26Z</time></trkpt>
<trkpt lat="46.59461" lon="6.33217"><ele></ele><time>2016-12-15T23:47:29Z</time></trkpt>
<trkpt lat="46.59477" lon="6.33228"><ele></ele><time>2016-12-15T23:47:32Z</time></trkpt>
<trkpt lat="46.59495" lon="6.33224"><ele></ele><time>2016-12-15T23:47:35Z</time></trkpt>
<trkpt lat="46.59513" lon="6.33228"><ele></ele><time>2016-12-15T23:47:38Z</time></trkpt>
<trkpt lat="46.59518" lon="6.33243"><ele></ele><time>2016-12-15T23:47:41Z</time></trkpt>
<trkpt lat="46.59515" lon="6.33266"><ele></ele><time>2016-12-15T23:47:44Z</time></trkpt>
<trkpt lat="46.59512" lon="6.333"><ele></ele><time>2016-12-15T23:47:47Z</time></trkpt>
<trkpt lat="46.5951" lon="6.33326"><ele></ele><time>2016-12-15T23:47:50Z</time></trkpt>
<trkpt lat="46.59513" lon="6.33338"><ele></ele><time>2016-12-15T23:47:53Z</time></trkpt>
<trkpt lat="46.5952" lon="6.33351"><ele></ele><time>2016-12-15T23:47:56Z</time></trkpt>
<trkpt lat="46.5952" lon="6.33351"><ele></ele><time>2016-12-15T23:47:59Z</time></trkpt>
<trkpt lat="46.59527" lon="6.33353"><ele></ele><time>2016-12-15T23:48:2Z</time></trkpt>
<trkpt lat="46.59541" lon="6.33336"><ele></ele><time>2016-12-15T23:48:5Z</time></trkpt>
<trkpt lat="46.59554" lon="6.33309"><ele></ele><time>2016-12-15T23:48:8Z</time></trkpt>
<trkpt lat="46.59564" lon="6.333"><ele></ele><time>2016-12-15T23:48:11Z</time></trkpt>
<trkpt lat="46.59571" lon="6.33292"><ele></ele><time>2016-12-15T23:48:14Z</time></trkpt>
<trkpt lat="46.59584" lon="6.33286"><ele></ele><time>2016-12-15T23:48:17Z</time></trkpt>
<trkpt lat="46.59599" lon="6.33275"><ele></ele><time>2016-12-15T23:48:20Z</time></trkpt>
<trkpt lat="46.59603" lon="6.33269"><ele></ele><time>2016-12-15T23:48:23Z</time></trkpt>
<trkpt lat="46.59622" lon="6.33257"><ele></ele><time>2016-12-15T23:48:26Z</time></trkpt>
<trkpt lat="46.59641" lon="6.33229"><ele></ele><time>2016-12-15T23:48:29Z</time></trkpt>
<trkpt lat="46.59649" lon="6.33203"><ele></ele><time>2016-12-15T23:48:32Z</time></trkpt>
<trkpt lat="46.59644" lon="6.33178"><ele></ele><time>2016-12-15T23:48:35Z</time></trkpt>
<trkpt lat="46.59635" lon="6.33154"><ele></ele><time>2016-12-15T23:48:38Z</time></trkpt>
<trkpt lat="46.59632" lon="6.33128"><ele></ele><time>2016-12-15T23:48:41Z</time></trkpt>
<trkpt lat="46.59632" lon="6.33123"><ele></ele><time>2016-12-15T23:48:44Z</time></trkpt>
<trkpt lat="46.59632" lon="6.33114"><ele></ele><time>2016-12-15T23:48:47Z</time></trkpt>
<trkpt lat="46.59636" lon="6.33097"><ele></ele><time>2016-12-15T23:48:50Z</time></trkpt>
<trkpt lat="46.59641" lon="6.33072"><ele></ele><time>2016-12-15T23:48:53Z</time></trkpt>
<trkpt lat="46.59639" lon="6.33036"><ele></ele><time>2016-12-15T23:48:56Z</time></trkpt>
<trkpt lat="46.59629" lon="6.33012"><ele></ele><time>2016-12-15T23:48:59Z</time></trkpt>
<trkpt lat="46.59622" lon="6.32986"><ele></ele><time>2016-12-15T23:49:2Z</time></trkpt>
<trkpt lat="46.5962" lon="6.32968"><ele></ele><time>2016-12-15T23:49:5Z</time></trkpt>
<trkpt lat="46.59627" lon="6.32944"><ele></ele><time>2016-12-15T23:49:8Z</time></trkpt>
<trkpt lat="46.59635" lon="6.3292"><ele></ele><time>2016-12-15T23:49:11Z</time></trkpt>
<trkpt lat="46.59633" lon="6.32894"><ele></ele><time>2016-12-15T23:49:14Z</time></trkpt>
<trkpt lat="46.59629" lon="6.3288"><ele></ele><time>2016-12-15T23:49:17Z</time></trkpt>
<trkpt lat="46.5962" lon="6.3285"><ele></ele><time>2016-12-15T23:49:20Z</time></trkpt>
<trkpt lat="46.59615" lon="6.32822"><ele></ele><time>2016-12-15T23:49:23Z</time></trkpt>
<trkpt lat="46.59607" lon="6.32797"><ele></ele><time>2016-12-15T23:49:26Z</time></trkpt>
<trkpt lat="46.5959" lon="6.32782"><ele></ele><time>2016-12-15T23:49:29Z</time></trkpt>
<trkpt lat="46.59576" lon="6.32785"><ele></ele><time>2016-12-15T23:49:32Z</time></trkpt>
<trkpt lat="46.59558" lon="6.32776"><ele></ele><time>2016-12-15T23:49:35Z</time></trkpt>
<trkpt lat="46.59554" lon="6.32766"><ele></ele><time>2016-12-15T23:49:38Z</time></trkpt>
<trkpt lat="46.59543" lon="6.32744"><ele></ele><time>2016-12-15T23:49:41Z</time></trkpt>
<trkpt lat="46.59537" lon="6.32718"><ele></ele><time>2016-12-15T23:49:44Z</time></trkpt>
<trkpt lat="46.59537" lon="6.32678"><ele></ele><time>2016-12-15T23:49:47Z</time></trkpt>
<trkpt lat="46.5954" lon="6.32667"><ele></ele><time>2016-12-15T23:49:50Z</time></trkpt>
<trkpt lat="46.59541" lon="6.32665"><ele></ele><time>2016-12-15T23:49:53Z</time></trkpt>
<trkpt lat="46.59546" lon="6.32656"><ele></ele><time>2016-12-15T23:49:56Z</time></trkpt>
<trkpt lat="46.59559" lon="6.32637"><ele></ele><time>2016-12-15T23:49:59Z</time></trkpt>
<trkpt lat="46.59566" lon="6.3261"><ele></ele><time>2016-12-15T23:50:2Z</time></trkpt>
<trkpt lat="46.59558" lon="6.32586"><ele></ele><time>2016-12-15T23:50:5Z</time></trkpt>
<trkpt lat="46.59541" lon="6.32571"><ele></ele><time>2016-12-15T23:50:8Z</time></trkpt>
<trkpt lat="46.59527" lon="6.32555"><ele></ele><time>2016-12-15T23:50:11Z</time></trkpt>
<trkpt lat="46.59517" lon="6.32529"><ele></ele><time>2016-12-15T23:50:14Z</time></trkpt>
<trkpt lat="46.59517" lon="6.32489"><ele></ele><time>2016-12-15T23:50:17Z</time></trkpt>
<trkpt lat="46.59533" lon="6.32477"><ele></ele><time>2016-12-15T23:50:20Z</time></trkpt>
<trkpt lat="46.5955" lon="6.32488"><ele></ele><time>2016-12-15T23:50:23Z</time></trkpt>
<trkpt lat="46.59559" lon="6.32498"><ele></ele><time>2016-12-15T23:50:26Z</time></trkpt>
<trkpt lat="46.5956" lon="6.32499"><ele></ele><time>2016-12-15T23:50:29Z</time></trkpt>
<trkpt lat="46.59564" lon="6.32506"><ele></ele><time>2016-12-15T23:50:32Z</time></trkpt>
<trkpt lat="46.59588" lon="6.32533"><ele></ele><time>2016-12-15T23:50:35Z</time></trkpt>
<trkpt lat="46.59592" lon="6.32539"><ele></ele><time>2016-12-15T23:50:38Z</time></trkpt>
<trkpt lat="46.5961" lon="6.3255"><ele></ele><time>2016-12-15T23:50:41Z</time></trkpt>
<trkpt lat="46.5963" lon="6.32562"><ele></ele><time>2016-12-15T23:50:44Z</time></trkpt>
<trkpt lat="46.5965" lon="6.32569"><ele></ele><time>2016-12-15T23:50:47Z</time></trkpt>
<trkpt lat="46.59669" lon="6.32573"><ele></ele><time>2016-12-15T23:50:50Z</time></trkpt>
<trkpt lat="46.59678" lon="6.32574"><ele></ele><time>2016-12-15T23:50:53Z</time></trkpt>
<trkpt lat="46.59697" lon="6.32575"><ele></ele><time>2016-12-15T23:50:56Z</time></trkpt>
<trkpt lat="46.59727" lon="6.32572"><ele></ele><time>2016-12-15T23:50:59Z</time></trkpt>
<trkpt lat="46.59746" lon="6.32581"><ele></ele><time>2016-12-15T23:51:2Z</time></trkpt>
<trkpt lat="46.59751" lon="6.32586"><ele></ele><time>2016-12-15T23:51:5Z</time></trkpt>
<trkpt lat="46.59763" lon="6.32599"><ele></ele><time>2016-12-15T23:51:8Z</time></trkpt>
<trkpt lat="46.59772" lon="6.32611"><ele></ele><time>2016-12-15T23:51:11Z</time></trkpt>
<trkpt lat="46.59788" lon="6.32623"><ele></ele><time>2016-12-15T23:51:14Z</time></trkpt>
<trkpt lat="46.59795" lon="6.32626"><ele></ele><time>2016-12-15T23:51:17Z</time></trkpt>
<trkpt lat="46.59797" lon="6.32627"><ele></ele><time>2016-12-15T23:51:20Z</time></trkpt>
<trkpt lat="46.59806" lon="6.32631"><ele></ele><time>2016-12-15T23:51:23Z</time></trkpt>
<trkpt lat="46.59813" lon="6.32634"><ele></ele><time>2016-12-15T23:51:26Z</time></trkpt>
<trkpt lat="46.59824" lon="6.3264"><ele></ele><time>2016-12-15T23:51:29Z</time></trkpt>
<trkpt lat="46.59838" lon="6.32647"><ele></ele><time>2016-12-15T23:51:32Z</time></trkpt>
<trkpt lat="46.59854" lon="6.32638"><ele></ele><time>2016-12-15T23:51:35Z</time></trkpt>
<trkpt lat="46.59868" lon="6.3262"><ele></ele><time>2016-12-15T23:51:38Z</time></trkpt>
<trkpt lat="46.59886" lon="6.32618"><ele></ele><time>2016-12-15T23:51:41Z</time></trkpt>
<trkpt lat="46.59903" lon="6.32625"><ele></ele><time>2016-12-15T23:51:44Z</time></trkpt>
<trkpt lat="46.5992" lon="6.32639"><ele></ele><time>2016-12-15T23:51:47Z</time></trkpt>
<trkpt lat="46.59944" lon="6.32664"><ele></ele><time>2016-12-15T23:51:50Z</time></trkpt>
<trkpt lat="46.59959" lon="6.32682"><ele></ele><time>2016-12-15T23:51:53Z</time></trkpt>
<trkpt lat="46.59973" lon="6.32699"><ele></ele><time>2016-12-15T23:51:56Z</time></trkpt>
<trkpt lat="46.59989" lon="6.32711"><ele></ele><time>2016-12-15T23:51:59Z</time></trkpt>
<trkpt lat="46.59993" lon="6.32713"><ele></ele><time>2016-12-15T23:52:2Z</time></trkpt>
<trkpt lat="46.6001" lon="6.32714"><ele></ele><time>2016-12-15T23:52:5Z</time></trkpt>
<trkpt lat="46.60028" lon="6.32706"><ele></ele><time>2016-12-15T23:52:8Z</time></trkpt>
<trkpt lat="46.60045" lon="6.32697"><ele></ele><time>2016-12-15T23:52:11Z</time></trkpt>
<trkpt lat="46.60063" lon="6.32686"><ele></ele><time>2016-12-15T23:52:14Z</time></trkpt>
<trkpt lat="46.60078" lon="6.32655"><ele></ele><time>2016-12-15T23:52:17Z</time></trkpt>
<trkpt lat="46.60095" lon="6.32644"><ele></ele><time>2016-12-15T23:52:20Z</time></trkpt>
<trkpt lat="46.601" lon="6.32638"><ele></ele><time>2016-12-15T23:52:23Z</time></trkpt>
<trkpt lat="46.60101" lon="6.32633"><ele></ele><time>2016-12-15T23:52:26Z</time></trkpt>
<trkpt lat="46.60104" lon="6.3261"><ele></ele><time>2016-12-15T23:52:29Z</time></trkpt>
<trkpt lat="46.60098" lon="6.32583"><ele></ele><time>2016-12-15T23:52:32Z</time></trkpt>
<trkpt lat="46.60088" lon="6.32557"><ele></ele><time>2016-12-15T23:52:35Z</time></trkpt>
<trkpt lat="46.60082" lon="6.32533"><ele></ele><time>2016-12-15T23:52:38Z</time></trkpt>
<trkpt lat="46.60079" lon="6.32507"><ele></ele><time>2016-12-15T23:52:41Z</time></trkpt>
<trkpt lat="46.60067" lon="6.32471"><ele></ele><time>2016-12-15T23:52:44Z</time></trkpt>
<trkpt lat="46.60055" lon="6.32458"><ele></ele><time>2016-12-15T23:52:47Z</time></trkpt>
<trkpt lat="46.60037" lon="6.32445"><ele></ele><time>2016-12-15T23:52:50Z</time></trkpt>
<trkpt lat="46.60019" lon="6.32435"><ele></ele><time>2016-12-15T23:52:53Z</time></trkpt>
<trkpt lat="46.60012" lon="6.32429"><ele></ele><time>2016-12-15T23:52:56Z</time></trkpt>
<trkpt lat="46.60003" lon="6.32407"><ele></ele><time>2016-12-15T23:52:59Z</time></trkpt>
<trkpt lat="46.60011" lon="6.32384"><ele></ele><time>2016-12-15T23:53:2Z</time></trkpt>
<trkpt lat="46.60011" lon="6.32381"><ele></ele><time>2016-12-15T23:53:5Z</time></trkpt>
<trkpt lat="46.60006" lon="6.32344"><ele></ele><time>2016-12-15T23:53:8Z</time></trkpt>
<trkpt lat="46.59994" lon="6.32325"><ele></ele><time>2016-12-15T23:53:11Z</time></trkpt>
<trkpt lat="46.59984" lon="6.32309"><ele></ele><time>2016-12-15T23:53:14Z</time></trkpt>
<trkpt lat="46.59973" lon="6.32289"><ele></ele><time>2016-12-15T23:53:17Z</time></trkpt>
<trkpt lat="46.59969" lon="6.32261"><ele></ele><time>2016-12-15T23:53:20Z</time></trkpt>
<trkpt lat="46.59969" lon="6.32233"><ele></ele><time>2016-12-15T23:53:23Z</time></trkpt>
<trkpt lat="46.59976" lon="6.32199"><ele></ele><time>2016-12-15T23:53:26Z</time></trkpt>
<trkpt lat="46.59985" lon="6.32174"><ele></ele><time>2016-12-15T23:53:29Z</time></trkpt>
<trkpt lat="46.59986" lon="6.32169"><ele></ele><time>2016-12-15T23:53:32Z</time></trkpt>
<trkpt lat="46.59986" lon="6.32158"><ele></ele><time>2016-12-15T23:53:35Z</time></trkpt>
<trkpt lat="46.59986" lon="6.32151"><ele></ele><time>2016-12-15T23:53:38Z</time></trkpt>
<trkpt lat="46.59986" lon="6.32148"><ele></ele><time>2016-12-15T23:53:41Z</time></trkpt>
<trkpt lat="46.5998" lon="6.32123"><ele></ele><time>2016-12-15T23:53:44Z</time></trkpt>
<trkpt lat="46.59969" lon="6.321"><ele></ele><time>2016-12-15T23:53:47Z</time></trkpt>
<trkpt lat="46.59953" lon="6.32072"><ele></ele><time>2016-12-15T23:53:50Z</time></trkpt>
<trkpt lat="46.59946" lon="6.32047"><ele></ele><time>2016-12-15T23:53:53Z</time></trkpt>
<trkpt lat="46.59944" lon="6.3202"><ele></ele><time>2016-12-15T23:53:56Z</time></trkpt>
<trkpt lat="46.59945" lon="6.31992"><ele></ele><time>2016-12-15T23:53:59Z</time></trkpt>
<trkpt lat="46.59939" lon="6.31965"><ele></ele><time>2016-12-15T23:54:2Z</time></trkpt>
<trkpt lat="46.59932" lon="6.31938"><ele></ele><time>2016-12-15T23:54:5Z</time></trkpt>
<trkpt lat="46.59927" lon="6.31912"><ele></ele><time>2016-12-15T23:54:8Z</time></trkpt>
<trkpt lat="46.59927" lon="6.31876"><ele></ele><time>2016-12-15T23:54:11Z</time></trkpt>
<trkpt lat="46.59934" lon="6.31851"><ele></ele><time>2016-12-15T23:54:14Z</time></trkpt>
<trkpt lat="46.59946" lon="6.31839"><ele></ele><time>2016-12-15T23:54:17Z</time></trkpt>
<trkpt lat="46.59947" lon="6.3184"><ele></ele><time>2016-12-15T23:54:20Z</time></trkpt>
<trkpt lat="46.5995" lon="6.31842"><ele></ele><time>2016-12-15T23:54:23Z</time></trkpt>
<trkpt lat="46.59951" lon="6.31843"><ele></ele><time>2016-12-15T23:54:26Z</time></trkpt>
<trkpt lat="46.59955" lon="6.31844"><ele></ele><time>2016-12-15T23:54:29Z</time></trkpt>
<trkpt lat="46.59965" lon="6.31859"><ele></ele><time>2016-12-15T23:54:32Z</time></trkpt>
<trkpt lat="46.59966" lon="6.31861"><ele></ele><time>2016-12-15T23:54:35Z</time></trkpt>
<trkpt lat="46.59974" lon="6.31873"><ele></ele><time>2016-12-15T23:54:38Z</time></trkpt>
<trkpt lat="46.59987" lon="6.31891"><ele></ele><time>2016-12-15T23:54:41Z</time></trkpt>
<trkpt lat="46.60003" lon="6.31912"><ele></ele><time>2016-12-15T23:54:44Z</time></trkpt>
<trkpt lat="46.60012" lon="6.31917"><ele></ele><time>2016-12-15T23:54:47Z</time></trkpt>
<trkpt lat="46.60025" lon="6.31921"><ele></ele><time>2016-12-15T23:54:50Z</time></trkpt>
<trkpt lat="46.60045" lon="6.31923"><ele></ele><time>2016-12-15T23:54:53Z</time></trkpt>
<trkpt lat="46.60061" lon="6.31916"><ele></ele><time>2016-12-15T23:54:56Z</time></trkpt>
<trkpt lat="46.60095" lon="6.3191"><ele></ele><time>2016-12-15T23:54:59Z</time></trkpt>
<trkpt lat="46.6011" lon="6.3193"><ele></ele><time>2016-12-15T23:55:2Z</time></trkpt>
<trkpt lat="46.60128" lon="6.31939"><ele></ele><time>2016-12-15T23:55:5Z</time></trkpt>
<trkpt lat="46.60144" lon="6.31938"><ele></ele><time>2016-12-15T23:55:8Z</time></trkpt>
<trkpt lat="46.60163" lon="6.31942"><ele></ele><time>2016-12-15T23:55:11Z</time></trkpt>
<trkpt lat="46.60182" lon="6.31953"><ele></ele><time>2016-12-15T23:55:14Z</time></trkpt>
<trkpt lat="46.60195" lon="6.31956"><ele></ele><time>2016-12-15T23:55:17Z</time></trkpt>
<trkpt lat="46.60214" lon="6.31954"><ele></ele><time>2016-12-15T23:55:20Z</time></trkpt>
<trkpt lat="46.60233" lon="6.31949"><ele></ele><time>2016-12-15T23:55:23Z</time></trkpt>
<trkpt lat="46.60242" lon="6.31946"><ele></ele><time>2016-12-15T23:55:26Z</time></trkpt>
<trkpt lat="46.60256" lon="6.31942"><ele></ele><time>2016-12-15T23:55:29Z</time></trkpt>
<trkpt lat="46.60275" lon="6.31941"><ele></ele><time>2016-12-15T23:55:32Z</time></trkpt>
<trkpt lat="46.6028" lon="6.31943"><ele></ele><time>2016-12-15T23:55:35Z</time></trkpt>
<trkpt lat="46.60284" lon="6.31945"><ele></ele><time>2016-12-15T23:55:38Z</time></trkpt>
<trkpt lat="46.60303" lon="6.31959"><ele></ele><time>2016-12-15T23:55:41Z</time></trkpt>
<trkpt lat="46.60325" lon="6.3197"><ele></ele><time>2016-12-15T23:55:44Z</time></trkpt>
<trkpt lat="46.60336" lon="6.31976"><ele></ele><time>2016-12-15T23:55:47Z</time></trkpt>
<trkpt lat="46.60349" lon="6.31989"><ele></ele><time>2016-12-15T23:55:50Z</time></trkpt>
<trkpt lat="46.60364" lon="6.3199"><ele></ele><time>2016-12-15T23:55:53Z</time></trkpt>
<trkpt lat="46.60349" lon="6.31973"><ele></ele><time>2016-12-15T23:55:56Z</time></trkpt>
<trkpt lat="46.60332" lon="6.3195"><ele></ele><time>2016-12-15T23:55:59Z</time></trkpt>
<trkpt lat="46.60318" lon="6.31928"><ele></ele><time>2016-12-15T23:56:2Z</time></trkpt>
<trkpt lat="46.60303" lon="6.31901"><ele></ele><time>2016-12-15T23:56:5Z</time></trkpt>
<trkpt lat="46.60292" lon="6.31879"><ele></ele><time>2016-12-15T23:56:8Z</time></trkpt>
<trkpt lat="46.60278" lon="6.31852"><ele></ele><time>2016-12-15T23:56:11Z</time></trkpt>
<trkpt lat="46.60272" lon="6.31838"><ele></ele><time>2016-12-15T23:56:14Z</time></trkpt>
<trkpt lat="46.6026" lon="6.3181"><ele></ele><time>2016-12-15T23:56:17Z</time></trkpt>
<trkpt lat="46.60253" lon="6.31789"><ele></ele><time>2016-12-15T23:56:20Z</time></trkpt>
<trkpt lat="46.60248" lon="6.31759"><ele></ele><time>2016-12-15T23:56:23Z</time></trkpt>
<trkpt lat="46.6024" lon="6.31729"><ele></ele><time>2016-12-15T23:56:26Z</time></trkpt>
<trkpt lat="46.60233" lon="6.31703"><ele></ele><time>2016-12-15T23:56:29Z</time></trkpt>
<trkpt lat="46.60229" lon="6.31677"><ele></ele><time>2016-12-15T23:56:32Z</time></trkpt>
<trkpt lat="46.60224" lon="6.31646"><ele></ele><time>2016-12-15T23:56:35Z</time></trkpt>
<trkpt lat="46.6022" lon="6.31622"><ele></ele><time>2016-12-15T23:56:38Z</time></trkpt>
<trkpt lat="46.60217" lon="6.316"><ele></ele><time>2016-12-15T23:56:41Z</time></trkpt>
<trkpt lat="46.60216" lon="6.31587"><ele></ele><time>2016-12-15T23:56:44Z</time></trkpt>
<trkpt lat="46.60223" lon="6.31558"><ele></ele><time>2016-12-15T23:56:47Z</time></trkpt>
<trkpt lat="46.6023" lon="6.31534"><ele></ele><time>2016-12-15T23:56:50Z</time></trkpt>
<trkpt lat="46.60231" lon="6.3153"><ele></ele><time>2016-12-15T23:56:53Z</time></trkpt>
<trkpt lat="46.60238" lon="6.31515"><ele></ele><time>2016-12-15T23:56:56Z</time></trkpt>
<trkpt lat="46.60235" lon="6.31489"><ele></ele><time>2016-12-15T23:56:59Z</time></trkpt>
<trkpt lat="46.60224" lon="6.31474"><ele></ele><time>2016-12-15T23:57:2Z</time></trkpt>
<trkpt lat="46.60214" lon="6.31461"><ele></ele><time>2016-12-15T23:57:5Z</time></trkpt>
<trkpt lat="46.60212" lon="6.31451"><ele></ele><time>2016-12-15T23:57:8Z</time></trkpt>
<trkpt lat="46.60207" lon="6.31446"><ele></ele><time>2016-12-15T23:57:11Z</time></trkpt>
<trkpt lat="46.60206" lon="6.31445"><ele></ele><time>2016-12-15T23:57:14Z</time></trkpt>
<trkpt lat="46.60206" lon="6.31445"><ele></ele><time>2016-12-15T23:57:17Z</time></trkpt>
<trkpt lat="46.60206" lon="6.31442"><ele></ele><time>2016-12-15T23:57:20Z</time></trkpt>
<trkpt lat="46.60193" lon="6.31437"><ele></ele><time>2016-12-15T23:57:23Z</time></trkpt>
<trkpt lat="46.60193" lon="6.31436"><ele></ele><time>2016-12-15T23:57:26Z</time></trkpt>
<trkpt lat="46.60192" lon="6.31436"><ele></ele><time>2016-12-15T23:57:29Z</time></trkpt>
<trkpt lat="46.60192" lon="6.31436"><ele></ele><time>2016-12-15T23:57:32Z</time></trkpt>
<trkpt lat="46.60186" lon="6.31411"><ele></ele><time>2016-12-15T23:57:35Z</time></trkpt>
<trkpt lat="46.60176" lon="6.31395"><ele></ele><time>2016-12-15T23:57:38Z</time></trkpt>
<trkpt lat="46.60161" lon="6.31375"><ele></ele><time>2016-12-15T23:57:41Z</time></trkpt>
<trkpt lat="46.60151" lon="6.31361"><ele></ele><time>2016-12-15T23:57:44Z</time></trkpt>
<trkpt lat="46.6014" lon="6.31341"><ele></ele><time>2016-12-15T23:57:47Z</time></trkpt>
<trkpt lat="46.60134" lon="6.31329"><ele></ele><time>2016-12-15T23:57:50Z</time></trkpt>
<trkpt lat="46.60122" lon="6.31309"><ele></ele><time>2016-12-15T23:57:53Z</time></trkpt>
<trkpt lat="46.60108" lon="6.31282"><ele></ele><time>2016-12-15T23:57:56Z</time></trkpt>
<trkpt lat="46.60096" lon="6.31257"><ele></ele><time>2016-12-15T23:57:59Z</time></trkpt>
<trkpt lat="46.60085" lon="6.31236"><ele></ele><time>2016-12-15T23:58:2Z</time></trkpt>
<trkpt lat="46.60081" lon="6.31227"><ele></ele><time>2016-12-15T23:58:5Z</time></trkpt>
<trkpt lat="46.60077" lon="6.31221"><ele></ele><time>2016-12-15T23:58:8Z</time></trkpt>
<trkpt lat="46.60074" lon="6.31213"><ele></ele><time>2016-12-15T23:58:11Z</time></trkpt>
<trkpt lat="46.6006" lon="6.31191"><ele></ele><time>2016-12-15T23:58:14Z</time></trkpt>
<trkpt lat="46.60059" lon="6.31179"><ele></ele><time>2016-12-15T23:58:17Z</time></trkpt>
<trkpt lat="46.60062" lon="6.31171"><ele></ele><time>2016-12-15T23:58:20Z</time></trkpt>
<trkpt lat="46.60069" lon="6.31147"><ele></ele><time>2016-12-15T23:58:23Z</time></trkpt>
<trkpt lat="46.60073" lon="6.31142"><ele></ele><time>2016-12-15T23:58:26Z</time></trkpt>
<trkpt lat="46.60083" lon="6.31154"><ele></ele><time>2016-12-15T23:58:29Z</time></trkpt>
<trkpt lat="46.601" lon="6.31155"><ele></ele><time>2016-12-15T23:58:32Z</time></trkpt>
<trkpt lat="46.60108" lon="6.31157"><ele></ele><time>2016-12-15T23:58:35Z</time></trkpt>
<trkpt lat="46.60123" lon="6.31154"><ele></ele><time>2016-12-15T23:58:38Z</time></trkpt>
<trkpt lat="46.60128" lon="6.31142"><ele></ele><time>2016-12-15T23:58:41Z</time></trkpt>
<trkpt lat="46.60124" lon="6.31117"><ele></ele><time>2016-12-15T23:58:44Z</time></trkpt>
<trkpt lat="46.60125" lon="6.31111"><ele></ele><time>2016-12-15T23:58:47Z</time></trkpt>
<trkpt lat="46.60125" lon="6.31109"><ele></ele><time>2016-12-15T23:58:50Z</time></trkpt>
<trkpt lat="46.60128" lon="6.31101"><ele></ele><time>2016-12-15T23:58:53Z</time></trkpt>
<trkpt lat="46.60129" lon="6.31096"><ele></ele><time>2016-12-15T23:58:56Z</time></trkpt>
<trkpt lat="46.60129" lon="6.31088"><ele></ele><time>2016-12-15T23:58:59Z</time></trkpt>
<trkpt lat="46.60126" lon="6.31076"><ele></ele><time>2016-12-15T23:59:2Z</time></trkpt>
<trkpt lat="46.60118" lon="6.31055"><ele></ele><time>2016-12-15T23:59:5Z</time></trkpt>
<trkpt lat="46.60117" lon="6.31051"><ele></ele><time>2016-12-15T23:59:8Z</time></trkpt>
<trkpt lat="46.60116" lon="6.31048"><ele></ele><time>2016-12-15T23:59:11Z</time></trkpt>
<trkpt lat="46.60108" lon="6.31039"><ele></ele><time>2016-12-15T23:59:14Z</time></trkpt>
<trkpt lat="46.60103" lon="6.31013"><ele></ele><time>2016-12-15T23:59:17Z</time></trkpt>
<trkpt lat="46.60096" lon="6.30995"><ele></ele><time>2016-12-15T23:59:20Z</time></trkpt>
<trkpt lat="46.60093" lon="6.30991"><ele></ele><time>2016-12-15T23:59:23Z</time></trkpt>
<trkpt lat="46.60093" lon="6.30986"><ele></ele><time>2016-12-15T23:59:26Z</time></trkpt>
<trkpt lat="46.60092" lon="6.30986"><ele></ele><time>2016-12-15T23:59:29Z</time></trkpt>
<trkpt lat="46.60091" lon="6.30981"><ele></ele><time>2016-12-15T23:59:32Z</time></trkpt>
<trkpt lat="46.60105" lon="6.30961"><ele></ele><time>2016-12-15T23:59:35Z</time></trkpt>
<trkpt lat="46.60122" lon="6.30951"><ele></ele><time>2016-12-15T23:59:38Z</time></trkpt>
<trkpt lat="46.60129" lon="6.30948"><ele></ele><time>2016-12-15T23:59:41Z</time></trkpt>
<trkpt lat="46.60132" lon="6.30946"><ele></ele><time>2016-12-15T23:59:44Z</time></trkpt>
<trkpt lat="46.60133" lon="6.30945"><ele></ele><time>2016-12-15T23:59:47Z</time></trkpt>
<trkpt lat="46.60133" lon="6.30943"><ele></ele><time>2016-12-15T23:59:50Z</time></trkpt>
<trkpt lat="46.60134" lon="6.30943"><ele></ele><time>2016-12-15T23:59:53Z</time></trkpt>
<trkpt lat="46.60151" lon="6.30934"><ele></ele><time>2016-12-15T23:59:56Z</time></trkpt>
<trkpt lat="46.60156" lon="6.30933"><ele></ele><time>2016-12-15T23:59:59Z</time></trkpt>
<trkpt lat="46.60163" lon="6.3094"><ele></ele><time>2016-12-16T0:0:2Z</time></trkpt>
<trkpt lat="46.60166" lon="6.30944"><ele></ele><time>2016-12-16T0:0:5Z</time></trkpt>
<trkpt lat="46.60168" lon="6.30948"><ele></ele><time>2016-12-16T0:0:8Z</time></trkpt>
<trkpt lat="46.60169" lon="6.30948"><ele></ele><time>2016-12-16T0:0:11Z</time></trkpt>
<trkpt lat="46.60169" lon="6.30948"><ele></ele><time>2016-12-16T0:0:14Z</time></trkpt>
<trkpt lat="46.60168" lon="6.30947"><ele></ele><time>2016-12-16T0:0:17Z</time></trkpt>
<trkpt lat="46.60168" lon="6.30948"><ele></ele><time>2016-12-16T0:0:20Z</time></trkpt>
<trkpt lat="46.60168" lon="6.30947"><ele></ele><time>2016-12-16T0:0:23Z</time></trkpt>
<trkpt lat="46.60168" lon="6.30947"><ele></ele><time>2016-12-16T0:0:26Z</time></trkpt>
<trkpt lat="46.60168" lon="6.30947"><ele></ele><time>2016-12-16T0:0:29Z</time></trkpt>
<trkpt lat="46.60168" lon="6.30947"><ele></ele><time>2016-12-16T0:0:32Z</time></trkpt>
<trkpt lat="46.60168" lon="6.30947"><ele></ele><time>2016-12-16T0:0:35Z</time></trkpt>
<trkpt lat="46.60168" lon="6.30947"><ele></ele><time>2016-12-16T0:0:38Z</time></trkpt>
<trkpt lat="46.60166" lon="6.30948"><ele></ele><time>2016-12-16T0:0:41Z</time></trkpt>
<trkpt lat="46.60166" lon="6.30948"><ele></ele><time>2016-12-16T0:0:44Z</time></trkpt>
<trkpt lat="46.60167" lon="6.30948"><ele></ele><time>2016-12-16T0:0:47Z</time></trkpt>
<trkpt lat="46.60167" lon="6.30948"><ele></ele><time>2016-12-16T0:0:50Z</time></trkpt>
<trkpt lat="46.60168" lon="6.30948"><ele></ele><time>2016-12-16T0:0:53Z</time></trkpt>
<trkpt lat="46.60168" lon="6.30949"><ele></ele><time>2016-12-16T0:0:56Z</time></trkpt>
<trkpt lat="46.60168" lon="6.30949"><ele></ele><time>2016-12-16T0:0:59Z</time></trkpt>
<trkpt lat="46.60168" lon="6.30951"><ele></ele><time>2016-12-16T0:1:2Z</time></trkpt>
<trkpt lat="46.60168" lon="6.3095"><ele></ele><time>2016-12-16T0:1:5Z</time></trkpt>
<trkpt lat="46.60168" lon="6.3095"><ele></ele><time>2016-12-16T0:1:8Z</time></trkpt>
<trkpt lat="46.60168" lon="6.3095"><ele></ele><time>2016-12-16T0:1:11Z</time></trkpt>
<trkpt lat="46.60168" lon="6.3095"><ele></ele><time>2016-12-16T0:1:14Z</time></trkpt>
<trkpt lat="46.60167" lon="6.3095"><ele></ele><time>2016-12-16T0:1:17Z</time></trkpt>
<trkpt lat="46.60167" lon="6.30949"><ele></ele><time>2016-12-16T0:1:20Z</time></trkpt>
<trkpt lat="46.60167" lon="6.30948"><ele></ele><time>2016-12-16T0:1:23Z</time></trkpt>
<trkpt lat="46.60167" lon="6.30948"><ele></ele><time>2016-12-16T0:1:26Z</time></trkpt>
<trkpt lat="46.60167" lon="6.30948"><ele></ele><time>2016-12-16T0:1:29Z</time></trkpt>
<trkpt lat="46.60166" lon="6.30946"><ele></ele><time>2016-12-16T0:1:32Z</time></trkpt>
<trkpt lat="46.60166" lon="6.30946"><ele></ele><time>2016-12-16T0:1:35Z</time></trkpt>
<trkpt lat="46.60166" lon="6.30946"><ele></ele><time>2016-12-16T0:1:38Z</time></trkpt>
<trkpt lat="46.60166" lon="6.30948"><ele></ele><time>2016-12-16T0:1:41Z</time></trkpt>
<trkpt lat="46.60167" lon="6.30947"><ele></ele><time>2016-12-16T0:1:44Z</time></trkpt>
<trkpt lat="46.60167" lon="6.30946"><ele></ele><time>2016-12-16T0:1:47Z</time></trkpt>
<trkpt lat="46.60167" lon="6.30947"><ele></ele><time>2016-12-16T0:1:50Z</time></trkpt>
<trkpt lat="46.60167" lon="6.30947"><ele></ele><time>2016-12-16T0:1:53Z</time></trkpt>
<trkpt lat="46.60167" lon="6.30946"><ele></ele><time>2016-12-16T0:1:56Z</time></trkpt>
<trkpt lat="46.60167" lon="6.30948"><ele></ele><time>2016-12-16T0:1:59Z</time></trkpt>
<trkpt lat="46.60168" lon="6.30951"><ele></ele><time>2016-12-16T0:2:2Z</time></trkpt>
<trkpt lat="46.60168" lon="6.30952"><ele></ele><time>2016-12-16T0:2:5Z</time></trkpt>
<trkpt lat="46.60168" lon="6.30952"><ele></ele><time>2016-12-16T0:2:8Z</time></trkpt>
<trkpt lat="46.60167" lon="6.30948"><ele></ele><time>2016-12-16T0:2:11Z</time></trkpt>
<trkpt lat="46.60167" lon="6.30948"><ele></ele><time>2016-12-16T0:2:14Z</time></trkpt>
<trkpt lat="46.60166" lon="6.30948"><ele></ele><time>2016-12-16T0:2:17Z</time></trkpt>
<trkpt lat="46.60166" lon="6.30947"><ele></ele><time>2016-12-16T0:2:20Z</time></trkpt>
<trkpt lat="46.60164" lon="6.30949"><ele></ele><time>2016-12-16T0:2:23Z</time></trkpt>
<trkpt lat="46.60164" lon="6.30947"><ele></ele><time>2016-12-16T0:2:26Z</time></trkpt>
<trkpt lat="46.60164" lon="6.30946"><ele></ele><time>2016-12-16T0:2:29Z</time></trkpt>
<trkpt lat="46.60167" lon="6.30947"><ele></ele><time>2016-12-16T0:2:32Z</time></trkpt>
<trkpt lat="46.60167" lon="6.30948"><ele></ele><time>2016-12-16T0:2:35Z</time></trkpt>
<trkpt lat="46.60167" lon="6.30948"><ele></ele><time>2016-12-16T0:2:38Z</time></trkpt>
<trkpt lat="46.60168" lon="6.30948"><ele></ele><time>2016-12-16T0:2:41Z</time></trkpt>
<trkpt lat="46.60167" lon="6.30946"><ele></ele><time>2016-12-16T0:2:44Z</time></trkpt>
<trkpt lat="46.60167" lon="6.30947"><ele></ele><time>2016-12-16T0:2:47Z</time></trkpt>
<trkpt lat="46.60167" lon="6.30948"><ele></ele><time>2016-12-16T0:2:50Z</time></trkpt>
<trkpt lat="46.60167" lon="6.30948"><ele></ele><time>2016-12-16T0:2:53Z</time></trkpt>
<trkpt lat="46.60168" lon="6.30949"><ele></ele><time>2016-12-16T0:2:56Z</time></trkpt>
<trkpt lat="46.60168" lon="6.30949"><ele></ele><time>2016-12-16T0:2:59Z</time></trkpt>
<trkpt lat="46.60168" lon="6.30949"><ele></ele><time>2016-12-16T0:3:2Z</time></trkpt>
<trkpt lat="46.60168" lon="6.3095"><ele></ele><time>2016-12-16T0:3:5Z</time></trkpt>
<trkpt lat="46.60168" lon="6.30951"><ele></ele><time>2016-12-16T0:3:8Z</time></trkpt>
<trkpt lat="46.60167" lon="6.30952"><ele></ele><time>2016-12-16T0:3:11Z</time></trkpt>
<trkpt lat="46.60166" lon="6.30951"><ele></ele><time>2016-12-16T0:3:14Z</time></trkpt>
<trkpt lat="46.60165" lon="6.3095"><ele></ele><time>2016-12-16T0:3:17Z</time></trkpt>
<trkpt lat="46.60165" lon="6.30951"><ele></ele><time>2016-12-16T0:3:20Z</time></trkpt>
<trkpt lat="46.60165" lon="6.30951"><ele></ele><time>2016-12-16T0:3:23Z</time></trkpt>
<trkpt lat="46.60165" lon="6.30951"><ele></ele><time>2016-12-16T0:3:26Z</time></trkpt>
<trkpt lat="46.60166" lon="6.30951"><ele></ele><time>2016-12-16T0:3:29Z</time></trkpt>
<trkpt lat="46.60166" lon="6.30951"><ele></ele><time>2016-12-16T0:3:32Z</time></trkpt>
<trkpt lat="46.60166" lon="6.30951"><ele></ele><time>2016-12-16T0:3:35Z</time></trkpt>
<trkpt lat="46.60166" lon="6.30951"><ele></ele><time>2016-12-16T0:3:38Z</time></trkpt>
<trkpt lat="46.60166" lon="6.30951"><ele></ele><time>2016-12-16T0:3:41Z</time></trkpt>
<trkpt lat="46.60166" lon="6.30951"><ele></ele><time>2016-12-16T0:3:44Z</time></trkpt>
<trkpt lat="46.60167" lon="6.3095"><ele></ele><time>2016-12-16T0:3:47Z</time></trkpt>
<trkpt lat="46.60167" lon="6.3095"><ele></ele><time>2016-12-16T0:3:50Z</time></trkpt>
<trkpt lat="46.60168" lon="6.3095"><ele></ele><time>2016-12-16T0:3:53Z</time></trkpt>
<trkpt lat="46.60168" lon="6.30951"><ele></ele><time>2016-12-16T0:3:56Z</time></trkpt>
<trkpt lat="46.60169" lon="6.30951"><ele></ele><time>2016-12-16T0:3:59Z</time></trkpt>
<trkpt lat="46.60168" lon="6.30951"><ele></ele><time>2016-12-16T0:4:2Z</time></trkpt>
<trkpt lat="46.60169" lon="6.30951"><ele></ele><time>2016-12-16T0:4:5Z</time></trkpt>
<trkpt lat="46.6017" lon="6.30953"><ele></ele><time>2016-12-16T0:4:8Z</time></trkpt>
<trkpt lat="46.6017" lon="6.30953"><ele></ele><time>2016-12-16T0:4:11Z</time></trkpt>
<trkpt lat="46.60169" lon="6.30949"><ele></ele><time>2016-12-16T0:4:14Z</time></trkpt>
<trkpt lat="46.60169" lon="6.30947"><ele></ele><time>2016-12-16T0:4:17Z</time></trkpt>
<trkpt lat="46.60168" lon="6.30946"><ele></ele><time>2016-12-16T0:4:20Z</time></trkpt>
<trkpt lat="46.60168" lon="6.30946"><ele></ele><time>2016-12-16T0:4:23Z</time></trkpt>
<trkpt lat="46.60168" lon="6.30945"><ele></ele><time>2016-12-16T0:4:26Z</time></trkpt>
<trkpt lat="46.60167" lon="6.30946"><ele></ele><time>2016-12-16T0:4:29Z</time></trkpt>
<trkpt lat="46.60165" lon="6.30946"><ele></ele><time>2016-12-16T0:4:32Z</time></trkpt>
<trkpt lat="46.60168" lon="6.30949"><ele></ele><time>2016-12-16T0:4:35Z</time></trkpt>
<trkpt lat="46.60168" lon="6.30949"><ele></ele><time>2016-12-16T0:4:38Z</time></trkpt>
<trkpt lat="46.60168" lon="6.30948"><ele></ele><time>2016-12-16T0:4:41Z</time></trkpt>
<trkpt lat="46.60168" lon="6.30947"><ele></ele><time>2016-12-16T0:4:44Z</time></trkpt>
<trkpt lat="46.60168" lon="6.30947"><ele></ele><time>2016-12-16T0:4:47Z</time></trkpt>
<trkpt lat="46.60168" lon="6.30947"><ele></ele><time>2016-12-16T0:4:50Z</time></trkpt>
<trkpt lat="46.60167" lon="6.30946"><ele></ele><time>2016-12-16T0:4:53Z</time></trkpt>
<trkpt lat="46.60167" lon="6.30946"><ele></ele><time>2016-12-16T0:4:56Z</time></trkpt>
<trkpt lat="46.60167" lon="6.30946"><ele></ele><time>2016-12-16T0:4:59Z</time></trkpt>
<trkpt lat="46.60167" lon="6.30945"><ele></ele><time>2016-12-16T0:5:2Z</time></trkpt>
<trkpt lat="46.60167" lon="6.30945"><ele></ele><time>2016-12-16T0:5:5Z</time></trkpt>
<trkpt lat="46.60167" lon="6.30944"><ele></ele><time>2016-12-16T0:5:8Z</time></trkpt>
<trkpt lat="46.60167" lon="6.30944"><ele></ele><time>2016-12-16T0:5:11Z</time></trkpt>
<trkpt lat="46.60167" lon="6.30944"><ele></ele><time>2016-12-16T0:5:14Z</time></trkpt>
<trkpt lat="46.60167" lon="6.30944"><ele></ele><time>2016-12-16T0:5:17Z</time></trkpt>
<trkpt lat="46.60167" lon="6.30944"><ele></ele><time>2016-12-16T0:5:20Z</time></trkpt>
<trkpt lat="46.60167" lon="6.30944"><ele></ele><time>2016-12-16T0:5:23Z</time></trkpt>
<trkpt lat="46.60167" lon="6.30945"><ele></ele><time>2016-12-16T0:5:26Z</time></trkpt>
<trkpt lat="46.60167" lon="6.30945"><ele></ele><time>2016-12-16T0:5:29Z</time></trkpt>
<trkpt lat="46.60167" lon="6.30945"><ele></ele><time>2016-12-16T0:5:32Z</time></trkpt>
<trkpt lat="46.60167" lon="6.30945"><ele></ele><time>2016-12-16T0:5:35Z</time></trkpt>
<trkpt lat="46.60167" lon="6.30945"><ele></ele><time>2016-12-16T0:5:38Z</time></trkpt>
<trkpt lat="46.60167" lon="6.30945"><ele></ele><time>2016-12-16T0:5:41Z</time></trkpt>
<trkpt lat="46.60166" lon="6.30946"><ele></ele><time>2016-12-16T0:5:44Z</time></trkpt>
<trkpt lat="46.60166" lon="6.30946"><ele></ele><time>2016-12-16T0:5:47Z</time></trkpt>
<trkpt lat="46.60166" lon="6.30945"><ele></ele><time>2016-12-16T0:5:50Z</time></trkpt>
<trkpt lat="46.60166" lon="6.30946"><ele></ele><time>2016-12-16T0:5:53Z</time></trkpt>
<trkpt lat="46.60166" lon="6.30946"><ele></ele><time>2016-12-16T0:5:56Z</time></trkpt>
<trkpt lat="46.60167" lon="6.30946"><ele></ele><time>2016-12-16T0:5:59Z</time></trkpt>
<trkpt lat="46.60167" lon="6.30947"><ele></ele><time>2016-12-16T0:6:2Z</time></trkpt>
<trkpt lat="46.60166" lon="6.30949"><ele></ele><time>2016-12-16T0:6:5Z</time></trkpt>
<trkpt lat="46.60167" lon="6.30951"><ele></ele><time>2016-12-16T0:6:8Z</time></trkpt>
<trkpt lat="46.60168" lon="6.30951"><ele></ele><time>2016-12-16T0:6:11Z</time></trkpt>
<trkpt lat="46.60168" lon="6.30951"><ele></ele><time>2016-12-16T0:6:14Z</time></trkpt>
<trkpt lat="46.60168" lon="6.30951"><ele></ele><time>2016-12-16T0:6:17Z</time></trkpt>
<trkpt lat="46.60168" lon="6.30951"><ele></ele><time>2016-12-16T0:6:20Z</time></trkpt>
<trkpt lat="46.60169" lon="6.30952"><ele></ele><time>2016-12-16T0:6:23Z</time></trkpt>
<trkpt lat="46.60169" lon="6.30952"><ele></ele><time>2016-12-16T0:6:26Z</time></trkpt>
<trkpt lat="46.60169" lon="6.30952"><ele></ele><time>2016-12-16T0:6:29Z</time></trkpt>
<trkpt lat="46.60169" lon="6.30952"><ele></ele><time>2016-12-16T0:6:32Z</time></trkpt>
<trkpt lat="46.6017" lon="6.30953"><ele></ele><time>2016-12-16T0:6:35Z</time></trkpt>
<trkpt lat="46.60169" lon="6.30952"><ele></ele><time>2016-12-16T0:6:38Z</time></trkpt>
<trkpt lat="46.60167" lon="6.30951"><ele></ele><time>2016-12-16T0:6:41Z</time></trkpt>
<trkpt lat="46.60181" lon="6.30966"><ele></ele><time>2016-12-16T0:6:44Z</time></trkpt>
<trkpt lat="46.60196" lon="6.30986"><ele></ele><time>2016-12-16T0:6:47Z</time></trkpt>
<trkpt lat="46.60198" lon="6.30991"><ele></ele><time>2016-12-16T0:6:50Z</time></trkpt>
<trkpt lat="46.60204" lon="6.31002"><ele></ele><time>2016-12-16T0:6:53Z</time></trkpt>
<trkpt lat="46.6022" lon="6.31027"><ele></ele><time>2016-12-16T0:6:56Z</time></trkpt>
<trkpt lat="46.60224" lon="6.31034"><ele></ele><time>2016-12-16T0:6:59Z</time></trkpt>
<trkpt lat="46.60228" lon="6.31042"><ele></ele><time>2016-12-16T0:7:2Z</time></trkpt>
<trkpt lat="46.60232" lon="6.3105"><ele></ele><time>2016-12-16T0:7:5Z</time></trkpt>
<trkpt lat="46.60242" lon="6.31064"><ele></ele><time>2016-12-16T0:7:8Z</time></trkpt>
<trkpt lat="46.60259" lon="6.31079"><ele></ele><time>2016-12-16T0:7:11Z</time></trkpt>
<trkpt lat="46.60265" lon="6.31084"><ele></ele><time>2016-12-16T0:7:14Z</time></trkpt>
<trkpt lat="46.60277" lon="6.31091"><ele></ele><time>2016-12-16T0:7:17Z</time></trkpt>
<trkpt lat="46.60286" lon="6.311"><ele></ele><time>2016-12-16T0:7:20Z</time></trkpt>
<trkpt lat="46.60303" lon="6.31123"><ele></ele><time>2016-12-16T0:7:23Z</time></trkpt>
<trkpt lat="46.6031" lon="6.31135"><ele></ele><time>2016-12-16T0:7:26Z</time></trkpt>
<trkpt lat="46.60316" lon="6.31148"><ele></ele><time>2016-12-16T0:7:29Z</time></trkpt>
<trkpt lat="46.60334" lon="6.31163"><ele></ele><time>2016-12-16T0:7:32Z</time></trkpt>
<trkpt lat="46.60345" lon="6.31165"><ele></ele><time>2016-12-16T0:7:35Z</time></trkpt>
<trkpt lat="46.60355" lon="6.31169"><ele></ele><time>2016-12-16T0:7:38Z</time></trkpt>
<trkpt lat="46.60372" lon="6.31181"><ele></ele><time>2016-12-16T0:7:41Z</time></trkpt>
<trkpt lat="46.6039" lon="6.31194"><ele></ele><time>2016-12-16T0:7:44Z</time></trkpt>
<trkpt lat="46.60411" lon="6.31205"><ele></ele><time>2016-12-16T0:7:47Z</time></trkpt>
<trkpt lat="46.60417" lon="6.31208"><ele></ele><time>2016-12-16T0:7:50Z</time></trkpt>
<trkpt lat="46.60422" lon="6.31212"><ele></ele><time>2016-12-16T0:7:53Z</time></trkpt>
<trkpt lat="46.60428" lon="6.31217"><ele></ele><time>2016-12-16T0:7:56Z</time></trkpt>
<trkpt lat="46.60437" lon="6.31227"><ele></ele><time>2016-12-16T0:7:59Z</time></trkpt>
<trkpt lat="46.60452" lon="6.31245"><ele></ele><time>2016-12-16T0:8:2Z</time></trkpt>
<trkpt lat="46.60454" lon="6.31249"><ele></ele><time>2016-12-16T0:8:5Z</time></trkpt>
<trkpt lat="46.60456" lon="6.31253"><ele></ele><time>2016-12-16T0:8:8Z</time></trkpt>
<trkpt lat="46.6047" lon="6.3127"><ele></ele><time>2016-12-16T0:8:11Z</time></trkpt>
<trkpt lat="46.60475" lon="6.31276"><ele></ele><time>2016-12-16T0:8:14Z</time></trkpt>
<trkpt lat="46.60487" lon="6.31297"><ele></ele><time>2016-12-16T0:8:17Z</time></trkpt>
<trkpt lat="46.60498" lon="6.31319"><ele></ele><time>2016-12-16T0:8:20Z</time></trkpt>
<trkpt lat="46.60507" lon="6.31334"><ele></ele><time>2016-12-16T0:8:23Z</time></trkpt>
<trkpt lat="46.60518" lon="6.31354"><ele></ele><time>2016-12-16T0:8:26Z</time></trkpt>
<trkpt lat="46.60532" lon="6.31374"><ele></ele><time>2016-12-16T0:8:29Z</time></trkpt>
<trkpt lat="46.60547" lon="6.31392"><ele></ele><time>2016-12-16T0:8:32Z</time></trkpt>
<trkpt lat="46.60562" lon="6.31414"><ele></ele><time>2016-12-16T0:8:35Z</time></trkpt>
<trkpt lat="46.60578" lon="6.31438"><ele></ele><time>2016-12-16T0:8:38Z</time></trkpt>
<trkpt lat="46.60591" lon="6.31456"><ele></ele><time>2016-12-16T0:8:41Z</time></trkpt>
<trkpt lat="46.60604" lon="6.31475"><ele></ele><time>2016-12-16T0:8:44Z</time></trkpt>
<trkpt lat="46.60609" lon="6.3148"><ele></ele><time>2016-12-16T0:8:47Z</time></trkpt>
<trkpt lat="46.60618" lon="6.31491"><ele></ele><time>2016-12-16T0:8:50Z</time></trkpt>
<trkpt lat="46.60633" lon="6.31513"><ele></ele><time>2016-12-16T0:8:53Z</time></trkpt>
<trkpt lat="46.60648" lon="6.31531"><ele></ele><time>2016-12-16T0:8:56Z</time></trkpt>
<trkpt lat="46.60667" lon="6.31557"><ele></ele><time>2016-12-16T0:8:59Z</time></trkpt>
<trkpt lat="46.60675" lon="6.31567"><ele></ele><time>2016-12-16T0:9:2Z</time></trkpt>
<trkpt lat="46.60689" lon="6.3159"><ele></ele><time>2016-12-16T0:9:5Z</time></trkpt>
<trkpt lat="46.60703" lon="6.31614"><ele></ele><time>2016-12-16T0:9:8Z</time></trkpt>
<trkpt lat="46.60718" lon="6.31638"><ele></ele><time>2016-12-16T0:9:11Z</time></trkpt>
<trkpt lat="46.60728" lon="6.31648"><ele></ele><time>2016-12-16T0:9:14Z</time></trkpt>
<trkpt lat="46.6074" lon="6.31668"><ele></ele><time>2016-12-16T0:9:17Z</time></trkpt>
<trkpt lat="46.60755" lon="6.31695"><ele></ele><time>2016-12-16T0:9:20Z</time></trkpt>
<trkpt lat="46.6077" lon="6.31721"><ele></ele><time>2016-12-16T0:9:23Z</time></trkpt>
<trkpt lat="46.60785" lon="6.31745"><ele></ele><time>2016-12-16T0:9:26Z</time></trkpt>
<trkpt lat="46.60796" lon="6.31763"><ele></ele><time>2016-12-16T0:9:29Z</time></trkpt>
<trkpt lat="46.60808" lon="6.31791"><ele></ele><time>2016-12-16T0:9:32Z</time></trkpt>
<trkpt lat="46.60818" lon="6.31813"><ele></ele><time>2016-12-16T0:9:35Z</time></trkpt>
<trkpt lat="46.60821" lon="6.31817"><ele></ele><time>2016-12-16T0:9:38Z</time></trkpt>
<trkpt lat="46.60838" lon="6.31834"><ele></ele><time>2016-12-16T0:9:41Z</time></trkpt>
<trkpt lat="46.60852" lon="6.31849"><ele></ele><time>2016-12-16T0:9:44Z</time></trkpt>
<trkpt lat="46.60853" lon="6.31853"><ele></ele><time>2016-12-16T0:9:47Z</time></trkpt>
<trkpt lat="46.60854" lon="6.31855"><ele></ele><time>2016-12-16T0:9:50Z</time></trkpt>
<trkpt lat="46.60854" lon="6.31856"><ele></ele><time>2016-12-16T0:9:53Z</time></trkpt>
<trkpt lat="46.60854" lon="6.31856"><ele></ele><time>2016-12-16T0:9:56Z</time></trkpt>
<trkpt lat="46.60853" lon="6.31856"><ele></ele><time>2016-12-16T0:9:59Z</time></trkpt>
<trkpt lat="46.60866" lon="6.31874"><ele></ele><time>2016-12-16T0:10:2Z</time></trkpt>
<trkpt lat="46.60872" lon="6.31886"><ele></ele><time>2016-12-16T0:10:5Z</time></trkpt>
<trkpt lat="46.60887" lon="6.31901"><ele></ele><time>2016-12-16T0:10:8Z</time></trkpt>
<trkpt lat="46.60904" lon="6.31908"><ele></ele><time>2016-12-16T0:10:11Z</time></trkpt>
<trkpt lat="46.60911" lon="6.31908"><ele></ele><time>2016-12-16T0:10:14Z</time></trkpt>
<trkpt lat="46.60917" lon="6.31909"><ele></ele><time>2016-12-16T0:10:17Z</time></trkpt>
<trkpt lat="46.60924" lon="6.31908"><ele></ele><time>2016-12-16T0:10:20Z</time></trkpt>
<trkpt lat="46.60944" lon="6.31904"><ele></ele><time>2016-12-16T0:10:23Z</time></trkpt>
<trkpt lat="46.60958" lon="6.31911"><ele></ele><time>2016-12-16T0:10:26Z</time></trkpt>
<trkpt lat="46.60977" lon="6.31927"><ele></ele><time>2016-12-16T0:10:29Z</time></trkpt>
<trkpt lat="46.60981" lon="6.31938"><ele></ele><time>2016-12-16T0:10:32Z</time></trkpt>
<trkpt lat="46.60989" lon="6.31964"><ele></ele><time>2016-12-16T0:10:35Z</time></trkpt>
<trkpt lat="46.61005" lon="6.31986"><ele></ele><time>2016-12-16T0:10:38Z</time></trkpt>
<trkpt lat="46.61024" lon="6.32007"><ele></ele><time>2016-12-16T0:10:41Z</time></trkpt>
<trkpt lat="46.61037" lon="6.32026"><ele></ele><time>2016-12-16T0:10:44Z</time></trkpt>
<trkpt lat="46.61051" lon="6.3205"><ele></ele><time>2016-12-16T0:10:47Z</time></trkpt>
<trkpt lat="46.61065" lon="6.3207"><ele></ele><time>2016-12-16T0:10:50Z</time></trkpt>
<trkpt lat="46.61081" lon="6.32092"><ele></ele><time>2016-12-16T0:10:53Z</time></trkpt>
<trkpt lat="46.61096" lon="6.32113"><ele></ele><time>2016-12-16T0:10:56Z</time></trkpt>
<trkpt lat="46.61102" lon="6.32124"><ele></ele><time>2016-12-16T0:10:59Z</time></trkpt>
<trkpt lat="46.61114" lon="6.32143"><ele></ele><time>2016-12-16T0:11:2Z</time></trkpt>
<trkpt lat="46.6112" lon="6.32154"><ele></ele><time>2016-12-16T0:11:5Z</time></trkpt>
<trkpt lat="46.61119" lon="6.32181"><ele></ele><time>2016-12-16T0:11:8Z</time></trkpt>
<trkpt lat="46.61113" lon="6.32189"><ele></ele><time>2016-12-16T0:11:11Z</time></trkpt>
<trkpt lat="46.61093" lon="6.32182"><ele></ele><time>2016-12-16T0:11:14Z</time></trkpt>
<trkpt lat="46.61079" lon="6.32165"><ele></ele><time>2016-12-16T0:11:17Z</time></trkpt>
<trkpt lat="46.61061" lon="6.32159"><ele></ele><time>2016-12-16T0:11:20Z</time></trkpt>
<trkpt lat="46.61043" lon="6.32169"><ele></ele><time>2016-12-16T0:11:23Z</time></trkpt>
<trkpt lat="46.61033" lon="6.32186"><ele></ele><time>2016-12-16T0:11:26Z</time></trkpt>
<trkpt lat="46.61029" lon="6.32211"><ele></ele><time>2016-12-16T0:11:29Z</time></trkpt>
<trkpt lat="46.61027" lon="6.32229"><ele></ele><time>2016-12-16T0:11:32Z</time></trkpt>
<trkpt lat="46.61025" lon="6.32248"><ele></ele><time>2016-12-16T0:11:35Z</time></trkpt>
<trkpt lat="46.61032" lon="6.32278"><ele></ele><time>2016-12-16T0:11:38Z</time></trkpt>
<trkpt lat="46.61042" lon="6.32295"><ele></ele><time>2016-12-16T0:11:41Z</time></trkpt>
<trkpt lat="46.61058" lon="6.32322"><ele></ele><time>2016-12-16T0:11:44Z</time></trkpt>
<trkpt lat="46.61069" lon="6.32338"><ele></ele><time>2016-12-16T0:11:47Z</time></trkpt>
<trkpt lat="46.61082" lon="6.32358"><ele></ele><time>2016-12-16T0:11:50Z</time></trkpt>
<trkpt lat="46.61086" lon="6.32362"><ele></ele><time>2016-12-16T0:11:53Z</time></trkpt>
<trkpt lat="46.6109" lon="6.32367"><ele></ele><time>2016-12-16T0:11:56Z</time></trkpt>
<trkpt lat="46.61096" lon="6.32374"><ele></ele><time>2016-12-16T0:11:59Z</time></trkpt>
<trkpt lat="46.61098" lon="6.32376"><ele></ele><time>2016-12-16T0:12:2Z</time></trkpt>
<trkpt lat="46.61106" lon="6.32383"><ele></ele><time>2016-12-16T0:12:5Z</time></trkpt>
<trkpt lat="46.61117" lon="6.32392"><ele></ele><time>2016-12-16T0:12:8Z</time></trkpt>
<trkpt lat="46.61126" lon="6.32419"><ele></ele><time>2016-12-16T0:12:11Z</time></trkpt>
<trkpt lat="46.61128" lon="6.32436"><ele></ele><time>2016-12-16T0:12:14Z</time></trkpt>
<trkpt lat="46.61129" lon="6.32445"><ele></ele><time>2016-12-16T0:12:17Z</time></trkpt>
<trkpt lat="46.61132" lon="6.32472"><ele></ele><time>2016-12-16T0:12:20Z</time></trkpt>
<trkpt lat="46.61132" lon="6.32481"><ele></ele><time>2016-12-16T0:12:23Z</time></trkpt>
<trkpt lat="46.61132" lon="6.3249"><ele></ele><time>2016-12-16T0:12:26Z</time></trkpt>
<trkpt lat="46.6113" lon="6.3251"><ele></ele><time>2016-12-16T0:12:29Z</time></trkpt>
<trkpt lat="46.61133" lon="6.32542"><ele></ele><time>2016-12-16T0:12:32Z</time></trkpt>
<trkpt lat="46.61141" lon="6.32579"><ele></ele><time>2016-12-16T0:12:35Z</time></trkpt>
<trkpt lat="46.61148" lon="6.32602"><ele></ele><time>2016-12-16T0:12:38Z</time></trkpt>
<trkpt lat="46.61158" lon="6.32624"><ele></ele><time>2016-12-16T0:12:41Z</time></trkpt>
<trkpt lat="46.61168" lon="6.32647"><ele></ele><time>2016-12-16T0:12:44Z</time></trkpt>
<trkpt lat="46.61177" lon="6.32672"><ele></ele><time>2016-12-16T0:12:47Z</time></trkpt>
<trkpt lat="46.61186" lon="6.32697"><ele></ele><time>2016-12-16T0:12:50Z</time></trkpt>
<trkpt lat="46.61191" lon="6.32708"><ele></ele><time>2016-12-16T0:12:53Z</time></trkpt>
<trkpt lat="46.61204" lon="6.32728"><ele></ele><time>2016-12-16T0:12:56Z</time></trkpt>
<trkpt lat="46.61219" lon="6.32746"><ele></ele><time>2016-12-16T0:12:59Z</time></trkpt>
<trkpt lat="46.61241" lon="6.32763"><ele></ele><time>2016-12-16T0:13:2Z</time></trkpt>
<trkpt lat="46.61263" lon="6.32777"><ele></ele><time>2016-12-16T0:13:5Z</time></trkpt>
<trkpt lat="46.61278" lon="6.32785"><ele></ele><time>2016-12-16T0:13:8Z</time></trkpt>
<trkpt lat="46.61299" lon="6.32797"><ele></ele><time>2016-12-16T0:13:11Z</time></trkpt>
<trkpt lat="46.6132" lon="6.3281"><ele></ele><time>2016-12-16T0:13:14Z</time></trkpt>
<trkpt lat="46.61341" lon="6.32823"><ele></ele><time>2016-12-16T0:13:17Z</time></trkpt>
<trkpt lat="46.61362" lon="6.32833"><ele></ele><time>2016-12-16T0:13:20Z</time></trkpt>
<trkpt lat="46.61381" lon="6.32842"><ele></ele><time>2016-12-16T0:13:23Z</time></trkpt>
<trkpt lat="46.61398" lon="6.32852"><ele></ele><time>2016-12-16T0:13:26Z</time></trkpt>
<trkpt lat="46.61415" lon="6.32866"><ele></ele><time>2016-12-16T0:13:29Z</time></trkpt>
<trkpt lat="46.61433" lon="6.32885"><ele></ele><time>2016-12-16T0:13:32Z</time></trkpt>
<trkpt lat="46.61441" lon="6.32897"><ele></ele><time>2016-12-16T0:13:35Z</time></trkpt>
<trkpt lat="46.61454" lon="6.32919"><ele></ele><time>2016-12-16T0:13:38Z</time></trkpt>
<trkpt lat="46.61467" lon="6.32949"><ele></ele><time>2016-12-16T0:13:41Z</time></trkpt>
<trkpt lat="46.61481" lon="6.32979"><ele></ele><time>2016-12-16T0:13:44Z</time></trkpt>
<trkpt lat="46.61499" lon="6.33002"><ele></ele><time>2016-12-16T0:13:47Z</time></trkpt>
<trkpt lat="46.61511" lon="6.33015"><ele></ele><time>2016-12-16T0:13:50Z</time></trkpt>
<trkpt lat="46.61526" lon="6.33035"><ele></ele><time>2016-12-16T0:13:53Z</time></trkpt>
<trkpt lat="46.61532" lon="6.33052"><ele></ele><time>2016-12-16T0:13:56Z</time></trkpt>
<trkpt lat="46.61535" lon="6.33061"><ele></ele><time>2016-12-16T0:13:59Z</time></trkpt>
<trkpt lat="46.61544" lon="6.33086"><ele></ele><time>2016-12-16T0:14:2Z</time></trkpt>
<trkpt lat="46.61556" lon="6.33107"><ele></ele><time>2016-12-16T0:14:5Z</time></trkpt>
<trkpt lat="46.61572" lon="6.33129"><ele></ele><time>2016-12-16T0:14:8Z</time></trkpt>
<trkpt lat="46.61581" lon="6.33142"><ele></ele><time>2016-12-16T0:14:11Z</time></trkpt>
<trkpt lat="46.61603" lon="6.33169"><ele></ele><time>2016-12-16T0:14:14Z</time></trkpt>
<trkpt lat="46.61619" lon="6.33185"><ele></ele><time>2016-12-16T0:14:17Z</time></trkpt>
<trkpt lat="46.61636" lon="6.33201"><ele></ele><time>2016-12-16T0:14:20Z</time></trkpt>
<trkpt lat="46.61656" lon="6.33218"><ele></ele><time>2016-12-16T0:14:23Z</time></trkpt>
<trkpt lat="46.6167" lon="6.3323"><ele></ele><time>2016-12-16T0:14:26Z</time></trkpt>
<trkpt lat="46.61694" lon="6.33242"><ele></ele><time>2016-12-16T0:14:29Z</time></trkpt>
<trkpt lat="46.61715" lon="6.33244"><ele></ele><time>2016-12-16T0:14:32Z</time></trkpt>
<trkpt lat="46.61726" lon="6.3324"><ele></ele><time>2016-12-16T0:14:35Z</time></trkpt>
<trkpt lat="46.61732" lon="6.33238"><ele></ele><time>2016-12-16T0:14:38Z</time></trkpt>
<trkpt lat="46.6175" lon="6.33227"><ele></ele><time>2016-12-16T0:14:41Z</time></trkpt>
<trkpt lat="46.6177" lon="6.33217"><ele></ele><time>2016-12-16T0:14:44Z</time></trkpt>
<trkpt lat="46.61791" lon="6.33213"><ele></ele><time>2016-12-16T0:14:47Z</time></trkpt>
<trkpt lat="46.61797" lon="6.33213"><ele></ele><time>2016-12-16T0:14:50Z</time></trkpt>
<trkpt lat="46.61815" lon="6.3322"><ele></ele><time>2016-12-16T0:14:53Z</time></trkpt>
<trkpt lat="46.61827" lon="6.33231"><ele></ele><time>2016-12-16T0:14:56Z</time></trkpt>
<trkpt lat="46.6184" lon="6.33257"><ele></ele><time>2016-12-16T0:14:59Z</time></trkpt>
<trkpt lat="46.61851" lon="6.3328"><ele></ele><time>2016-12-16T0:15:2Z</time></trkpt>
<trkpt lat="46.61867" lon="6.33298"><ele></ele><time>2016-12-16T0:15:5Z</time></trkpt>
<trkpt lat="46.61875" lon="6.33323"><ele></ele><time>2016-12-16T0:15:8Z</time></trkpt>
<trkpt lat="46.61878" lon="6.33352"><ele></ele><time>2016-12-16T0:15:11Z</time></trkpt>
<trkpt lat="46.6188" lon="6.33362"><ele></ele><time>2016-12-16T0:15:14Z</time></trkpt>
<trkpt lat="46.61892" lon="6.33389"><ele></ele><time>2016-12-16T0:15:17Z</time></trkpt>
<trkpt lat="46.61897" lon="6.33394"><ele></ele><time>2016-12-16T0:15:20Z</time></trkpt>
<trkpt lat="46.61913" lon="6.33413"><ele></ele><time>2016-12-16T0:15:23Z</time></trkpt>
<trkpt lat="46.61931" lon="6.33431"><ele></ele><time>2016-12-16T0:15:26Z</time></trkpt>
<trkpt lat="46.61938" lon="6.33441"><ele></ele><time>2016-12-16T0:15:29Z</time></trkpt>
<trkpt lat="46.61945" lon="6.33453"><ele></ele><time>2016-12-16T0:15:32Z</time></trkpt>
<trkpt lat="46.6195" lon="6.33466"><ele></ele><time>2016-12-16T0:15:35Z</time></trkpt>
<trkpt lat="46.61953" lon="6.33473"><ele></ele><time>2016-12-16T0:15:38Z</time></trkpt>
<trkpt lat="46.61967" lon="6.33491"><ele></ele><time>2016-12-16T0:15:41Z</time></trkpt>
<trkpt lat="46.61972" lon="6.33496"><ele></ele><time>2016-12-16T0:15:44Z</time></trkpt>
<trkpt lat="46.61982" lon="6.33506"><ele></ele><time>2016-12-16T0:15:47Z</time></trkpt>
<trkpt lat="46.61999" lon="6.33528"><ele></ele><time>2016-12-16T0:15:50Z</time></trkpt>
<trkpt lat="46.62012" lon="6.33555"><ele></ele><time>2016-12-16T0:15:53Z</time></trkpt>
<trkpt lat="46.62016" lon="6.33568"><ele></ele><time>2016-12-16T0:15:56Z</time></trkpt>
<trkpt lat="46.62019" lon="6.33572"><ele></ele><time>2016-12-16T0:15:59Z</time></trkpt>
<trkpt lat="46.62031" lon="6.33587"><ele></ele><time>2016-12-16T0:16:2Z</time></trkpt>
<trkpt lat="46.62046" lon="6.3361"><ele></ele><time>2016-12-16T0:16:5Z</time></trkpt>
<trkpt lat="46.62061" lon="6.33636"><ele></ele><time>2016-12-16T0:16:8Z</time></trkpt>
<trkpt lat="46.62067" lon="6.33652"><ele></ele><time>2016-12-16T0:16:11Z</time></trkpt>
<trkpt lat="46.62073" lon="6.33682"><ele></ele><time>2016-12-16T0:16:14Z</time></trkpt>
<trkpt lat="46.6208" lon="6.33705"><ele></ele><time>2016-12-16T0:16:17Z</time></trkpt>
<trkpt lat="46.6209" lon="6.33724"><ele></ele><time>2016-12-16T0:16:20Z</time></trkpt>
<trkpt lat="46.62107" lon="6.33744"><ele></ele><time>2016-12-16T0:16:23Z</time></trkpt>
<trkpt lat="46.62117" lon="6.33754"><ele></ele><time>2016-12-16T0:16:26Z</time></trkpt>
<trkpt lat="46.62127" lon="6.33763"><ele></ele><time>2016-12-16T0:16:29Z</time></trkpt>
<trkpt lat="46.62144" lon="6.33781"><ele></ele><time>2016-12-16T0:16:32Z</time></trkpt>
<trkpt lat="46.62159" lon="6.33802"><ele></ele><time>2016-12-16T0:16:35Z</time></trkpt>
<trkpt lat="46.62175" lon="6.33827"><ele></ele><time>2016-12-16T0:16:38Z</time></trkpt>
<trkpt lat="46.62191" lon="6.33854"><ele></ele><time>2016-12-16T0:16:41Z</time></trkpt>
<trkpt lat="46.6221" lon="6.33882"><ele></ele><time>2016-12-16T0:16:44Z</time></trkpt>
<trkpt lat="46.62228" lon="6.33907"><ele></ele><time>2016-12-16T0:16:47Z</time></trkpt>
<trkpt lat="46.6224" lon="6.33936"><ele></ele><time>2016-12-16T0:16:50Z</time></trkpt>
<trkpt lat="46.62245" lon="6.33958"><ele></ele><time>2016-12-16T0:16:53Z</time></trkpt>
<trkpt lat="46.62251" lon="6.33979"><ele></ele><time>2016-12-16T0:16:56Z</time></trkpt>
<trkpt lat="46.62262" lon="6.34006"><ele></ele><time>2016-12-16T0:16:59Z</time></trkpt>
<trkpt lat="46.62269" lon="6.3402"><ele></ele><time>2016-12-16T0:17:2Z</time></trkpt>
<trkpt lat="46.62285" lon="6.34038"><ele></ele><time>2016-12-16T0:17:5Z</time></trkpt>
<trkpt lat="46.6229" lon="6.34041"><ele></ele><time>2016-12-16T0:17:8Z</time></trkpt>
<trkpt lat="46.62308" lon="6.34045"><ele></ele><time>2016-12-16T0:17:11Z</time></trkpt>
<trkpt lat="46.6233" lon="6.34047"><ele></ele><time>2016-12-16T0:17:14Z</time></trkpt>
<trkpt lat="46.62337" lon="6.34047"><ele></ele><time>2016-12-16T0:17:17Z</time></trkpt>
<trkpt lat="46.6236" lon="6.34051"><ele></ele><time>2016-12-16T0:17:20Z</time></trkpt>
<trkpt lat="46.6238" lon="6.34065"><ele></ele><time>2016-12-16T0:17:23Z</time></trkpt>
<trkpt lat="46.62386" lon="6.34071"><ele></ele><time>2016-12-16T0:17:26Z</time></trkpt>
<trkpt lat="46.62406" lon="6.34089"><ele></ele><time>2016-12-16T0:17:29Z</time></trkpt>
<trkpt lat="46.62427" lon="6.34106"><ele></ele><time>2016-12-16T0:17:32Z</time></trkpt>
<trkpt lat="46.62443" lon="6.34134"><ele></ele><time>2016-12-16T0:17:35Z</time></trkpt>
<trkpt lat="46.62447" lon="6.34146"><ele></ele><time>2016-12-16T0:17:38Z</time></trkpt>
<trkpt lat="46.62456" lon="6.34166"><ele></ele><time>2016-12-16T0:17:41Z</time></trkpt>
<trkpt lat="46.62475" lon="6.34187"><ele></ele><time>2016-12-16T0:17:44Z</time></trkpt>
<trkpt lat="46.62482" lon="6.34194"><ele></ele><time>2016-12-16T0:17:47Z</time></trkpt>
<trkpt lat="46.62496" lon="6.34224"><ele></ele><time>2016-12-16T0:17:50Z</time></trkpt>
<trkpt lat="46.62507" lon="6.34253"><ele></ele><time>2016-12-16T0:17:53Z</time></trkpt>
<trkpt lat="46.62515" lon="6.34273"><ele></ele><time>2016-12-16T0:17:56Z</time></trkpt>
<trkpt lat="46.62526" lon="6.34303"><ele></ele><time>2016-12-16T0:17:59Z</time></trkpt>
<trkpt lat="46.62535" lon="6.34333"><ele></ele><time>2016-12-16T0:18:2Z</time></trkpt>
<trkpt lat="46.62541" lon="6.34363"><ele></ele><time>2016-12-16T0:18:5Z</time></trkpt>
<trkpt lat="46.62546" lon="6.34392"><ele></ele><time>2016-12-16T0:18:8Z</time></trkpt>
<trkpt lat="46.6255" lon="6.3442"><ele></ele><time>2016-12-16T0:18:11Z</time></trkpt>
<trkpt lat="46.62555" lon="6.34449"><ele></ele><time>2016-12-16T0:18:14Z</time></trkpt>
<trkpt lat="46.62559" lon="6.34467"><ele></ele><time>2016-12-16T0:18:17Z</time></trkpt>
<trkpt lat="46.62563" lon="6.34475"><ele></ele><time>2016-12-16T0:18:20Z</time></trkpt>
<trkpt lat="46.62567" lon="6.34483"><ele></ele><time>2016-12-16T0:18:23Z</time></trkpt>
<trkpt lat="46.62583" lon="6.34495"><ele></ele><time>2016-12-16T0:18:26Z</time></trkpt>
<trkpt lat="46.62589" lon="6.34498"><ele></ele><time>2016-12-16T0:18:29Z</time></trkpt>
<trkpt lat="46.62607" lon="6.34507"><ele></ele><time>2016-12-16T0:18:32Z</time></trkpt>
<trkpt lat="46.62624" lon="6.34518"><ele></ele><time>2016-12-16T0:18:35Z</time></trkpt>
<trkpt lat="46.62642" lon="6.34534"><ele></ele><time>2016-12-16T0:18:38Z</time></trkpt>
<trkpt lat="46.6266" lon="6.34554"><ele></ele><time>2016-12-16T0:18:41Z</time></trkpt>
<trkpt lat="46.62678" lon="6.34574"><ele></ele><time>2016-12-16T0:18:44Z</time></trkpt>
<trkpt lat="46.62697" lon="6.34595"><ele></ele><time>2016-12-16T0:18:47Z</time></trkpt>
<trkpt lat="46.62717" lon="6.34616"><ele></ele><time>2016-12-16T0:18:50Z</time></trkpt>
<trkpt lat="46.62737" lon="6.34639"><ele></ele><time>2016-12-16T0:18:53Z</time></trkpt>
<trkpt lat="46.62758" lon="6.34661"><ele></ele><time>2016-12-16T0:18:56Z</time></trkpt>
<trkpt lat="46.62778" lon="6.34684"><ele></ele><time>2016-12-16T0:18:59Z</time></trkpt>
<trkpt lat="46.6279" lon="6.347"><ele></ele><time>2016-12-16T0:19:2Z</time></trkpt>
<trkpt lat="46.62794" lon="6.3471"><ele></ele><time>2016-12-16T0:19:5Z</time></trkpt>
<trkpt lat="46.62803" lon="6.34745"><ele></ele><time>2016-12-16T0:19:8Z</time></trkpt>
<trkpt lat="46.62811" lon="6.3478"><ele></ele><time>2016-12-16T0:19:11Z</time></trkpt>
<trkpt lat="46.62816" lon="6.3479"><ele></ele><time>2016-12-16T0:19:14Z</time></trkpt>
<trkpt lat="46.62833" lon="6.34812"><ele></ele><time>2016-12-16T0:19:17Z</time></trkpt>
<trkpt lat="46.62839" lon="6.34816"><ele></ele><time>2016-12-16T0:19:20Z</time></trkpt>
<trkpt lat="46.62855" lon="6.34827"><ele></ele><time>2016-12-16T0:19:23Z</time></trkpt>
<trkpt lat="46.62875" lon="6.34835"><ele></ele><time>2016-12-16T0:19:26Z</time></trkpt>
<trkpt lat="46.62896" lon="6.3484"><ele></ele><time>2016-12-16T0:19:29Z</time></trkpt>
<trkpt lat="46.62903" lon="6.34842"><ele></ele><time>2016-12-16T0:19:32Z</time></trkpt>
<trkpt lat="46.62917" lon="6.34845"><ele></ele><time>2016-12-16T0:19:35Z</time></trkpt>
<trkpt lat="46.62927" lon="6.34847"><ele></ele><time>2016-12-16T0:19:38Z</time></trkpt>
<trkpt lat="46.62941" lon="6.34853"><ele></ele><time>2016-12-16T0:19:41Z</time></trkpt>
<trkpt lat="46.6295" lon="6.34858"><ele></ele><time>2016-12-16T0:19:44Z</time></trkpt>
<trkpt lat="46.62969" lon="6.34868"><ele></ele><time>2016-12-16T0:19:47Z</time></trkpt>
<trkpt lat="46.62987" lon="6.34874"><ele></ele><time>2016-12-16T0:19:50Z</time></trkpt>
<trkpt lat="46.63001" lon="6.34877"><ele></ele><time>2016-12-16T0:19:53Z</time></trkpt>
<trkpt lat="46.63011" lon="6.34879"><ele></ele><time>2016-12-16T0:19:56Z</time></trkpt>
<trkpt lat="46.63026" lon="6.34883"><ele></ele><time>2016-12-16T0:19:59Z</time></trkpt>
<trkpt lat="46.63034" lon="6.34885"><ele></ele><time>2016-12-16T0:20:2Z</time></trkpt>
<trkpt lat="46.63041" lon="6.34913"><ele></ele><time>2016-12-16T0:20:5Z</time></trkpt>
<trkpt lat="46.63049" lon="6.34941"><ele></ele><time>2016-12-16T0:20:8Z</time></trkpt>
<trkpt lat="46.63063" lon="6.34957"><ele></ele><time>2016-12-16T0:20:11Z</time></trkpt>
<trkpt lat="46.63071" lon="6.34966"><ele></ele><time>2016-12-16T0:20:14Z</time></trkpt>
<trkpt lat="46.63081" lon="6.34978"><ele></ele><time>2016-12-16T0:20:17Z</time></trkpt>
<trkpt lat="46.63086" lon="6.34982"><ele></ele><time>2016-12-16T0:20:20Z</time></trkpt>
<trkpt lat="46.63104" lon="6.3499"><ele></ele><time>2016-12-16T0:20:23Z</time></trkpt>
<trkpt lat="46.63124" lon="6.34997"><ele></ele><time>2016-12-16T0:20:26Z</time></trkpt>
<trkpt lat="46.63144" lon="6.35015"><ele></ele><time>2016-12-16T0:20:29Z</time></trkpt>
<trkpt lat="46.6316" lon="6.35044"><ele></ele><time>2016-12-16T0:20:32Z</time></trkpt>
<trkpt lat="46.63168" lon="6.35066"><ele></ele><time>2016-12-16T0:20:35Z</time></trkpt>
<trkpt lat="46.63178" lon="6.351"><ele></ele><time>2016-12-16T0:20:38Z</time></trkpt>
<trkpt lat="46.63186" lon="6.35125"><ele></ele><time>2016-12-16T0:20:41Z</time></trkpt>
<trkpt lat="46.63188" lon="6.3513"><ele></ele><time>2016-12-16T0:20:44Z</time></trkpt>
<trkpt lat="46.63191" lon="6.35138"><ele></ele><time>2016-12-16T0:20:47Z</time></trkpt>
<trkpt lat="46.63201" lon="6.35156"><ele></ele><time>2016-12-16T0:20:50Z</time></trkpt>
<trkpt lat="46.6321" lon="6.35175"><ele></ele><time>2016-12-16T0:20:53Z</time></trkpt>
<trkpt lat="46.63225" lon="6.35198"><ele></ele><time>2016-12-16T0:20:56Z</time></trkpt>
<trkpt lat="46.63243" lon="6.35219"><ele></ele><time>2016-12-16T0:20:59Z</time></trkpt>
<trkpt lat="46.63258" lon="6.35237"><ele></ele><time>2016-12-16T0:21:2Z</time></trkpt>
<trkpt lat="46.63275" lon="6.35255"><ele></ele><time>2016-12-16T0:21:5Z</time></trkpt>
<trkpt lat="46.63285" lon="6.35271"><ele></ele><time>2016-12-16T0:21:8Z</time></trkpt>
<trkpt lat="46.63302" lon="6.35297"><ele></ele><time>2016-12-16T0:21:11Z</time></trkpt>
<trkpt lat="46.63322" lon="6.35322"><ele></ele><time>2016-12-16T0:21:14Z</time></trkpt>
<trkpt lat="46.63343" lon="6.35346"><ele></ele><time>2016-12-16T0:21:17Z</time></trkpt>
<trkpt lat="46.63357" lon="6.35363"><ele></ele><time>2016-12-16T0:21:20Z</time></trkpt>
<trkpt lat="46.63377" lon="6.35388"><ele></ele><time>2016-12-16T0:21:23Z</time></trkpt>
<trkpt lat="46.6339" lon="6.35411"><ele></ele><time>2016-12-16T0:21:26Z</time></trkpt>
<trkpt lat="46.63405" lon="6.35436"><ele></ele><time>2016-12-16T0:21:29Z</time></trkpt>
<trkpt lat="46.63411" lon="6.35445"><ele></ele><time>2016-12-16T0:21:32Z</time></trkpt>
<trkpt lat="46.63424" lon="6.3546"><ele></ele><time>2016-12-16T0:21:35Z</time></trkpt>
<trkpt lat="46.6344" lon="6.35471"><ele></ele><time>2016-12-16T0:21:38Z</time></trkpt>
<trkpt lat="46.63445" lon="6.35472"><ele></ele><time>2016-12-16T0:21:41Z</time></trkpt>
<trkpt lat="46.63451" lon="6.35473"><ele></ele><time>2016-12-16T0:21:44Z</time></trkpt>
<trkpt lat="46.63474" lon="6.35476"><ele></ele><time>2016-12-16T0:21:47Z</time></trkpt>
<trkpt lat="46.63492" lon="6.35482"><ele></ele><time>2016-12-16T0:21:50Z</time></trkpt>
<trkpt lat="46.63512" lon="6.35492"><ele></ele><time>2016-12-16T0:21:53Z</time></trkpt>
<trkpt lat="46.63532" lon="6.35503"><ele></ele><time>2016-12-16T0:21:56Z</time></trkpt>
<trkpt lat="46.63553" lon="6.35514"><ele></ele><time>2016-12-16T0:21:59Z</time></trkpt>
<trkpt lat="46.63563" lon="6.35523"><ele></ele><time>2016-12-16T0:22:2Z</time></trkpt>
<trkpt lat="46.63583" lon="6.35535"><ele></ele><time>2016-12-16T0:22:5Z</time></trkpt>
<trkpt lat="46.63603" lon="6.35543"><ele></ele><time>2016-12-16T0:22:8Z</time></trkpt>
<trkpt lat="46.63624" lon="6.35553"><ele></ele><time>2016-12-16T0:22:11Z</time></trkpt>
<trkpt lat="46.63644" lon="6.35571"><ele></ele><time>2016-12-16T0:22:14Z</time></trkpt>
<trkpt lat="46.63654" lon="6.35578"><ele></ele><time>2016-12-16T0:22:17Z</time></trkpt>
<trkpt lat="46.63664" lon="6.35586"><ele></ele><time>2016-12-16T0:22:20Z</time></trkpt>
<trkpt lat="46.63675" lon="6.35592"><ele></ele><time>2016-12-16T0:22:23Z</time></trkpt>
<trkpt lat="46.63697" lon="6.35604"><ele></ele><time>2016-12-16T0:22:26Z</time></trkpt>
<trkpt lat="46.63718" lon="6.35622"><ele></ele><time>2016-12-16T0:22:29Z</time></trkpt>
<trkpt lat="46.63738" lon="6.35641"><ele></ele><time>2016-12-16T0:22:32Z</time></trkpt>
<trkpt lat="46.63759" lon="6.35654"><ele></ele><time>2016-12-16T0:22:35Z</time></trkpt>
<trkpt lat="46.63774" lon="6.35663"><ele></ele><time>2016-12-16T0:22:38Z</time></trkpt>
<trkpt lat="46.6378" lon="6.35685"><ele></ele><time>2016-12-16T0:22:41Z</time></trkpt>
<trkpt lat="46.63773" lon="6.35711"><ele></ele><time>2016-12-16T0:22:44Z</time></trkpt>
<trkpt lat="46.6377" lon="6.35722"><ele></ele><time>2016-12-16T0:22:47Z</time></trkpt>
<trkpt lat="46.63759" lon="6.35745"><ele></ele><time>2016-12-16T0:22:50Z</time></trkpt>
<trkpt lat="46.63746" lon="6.35767"><ele></ele><time>2016-12-16T0:22:53Z</time></trkpt>
<trkpt lat="46.63732" lon="6.35789"><ele></ele><time>2016-12-16T0:22:56Z</time></trkpt>
<trkpt lat="46.63717" lon="6.35806"><ele></ele><time>2016-12-16T0:22:59Z</time></trkpt>
<trkpt lat="46.63704" lon="6.35822"><ele></ele><time>2016-12-16T0:23:2Z</time></trkpt>
<trkpt lat="46.63692" lon="6.35843"><ele></ele><time>2016-12-16T0:23:5Z</time></trkpt>
<trkpt lat="46.63676" lon="6.35872"><ele></ele><time>2016-12-16T0:23:8Z</time></trkpt>
<trkpt lat="46.63665" lon="6.35888"><ele></ele><time>2016-12-16T0:23:11Z</time></trkpt>
<trkpt lat="46.63642" lon="6.35907"><ele></ele><time>2016-12-16T0:23:14Z</time></trkpt>
<trkpt lat="46.63634" lon="6.35912"><ele></ele><time>2016-12-16T0:23:17Z</time></trkpt>
<trkpt lat="46.63615" lon="6.3592"><ele></ele><time>2016-12-16T0:23:20Z</time></trkpt>
<trkpt lat="46.63597" lon="6.35925"><ele></ele><time>2016-12-16T0:23:23Z</time></trkpt>
<trkpt lat="46.63579" lon="6.35933"><ele></ele><time>2016-12-16T0:23:26Z</time></trkpt>
<trkpt lat="46.63562" lon="6.35947"><ele></ele><time>2016-12-16T0:23:29Z</time></trkpt>
<trkpt lat="46.63546" lon="6.35962"><ele></ele><time>2016-12-16T0:23:32Z</time></trkpt>
<trkpt lat="46.63529" lon="6.35977"><ele></ele><time>2016-12-16T0:23:35Z</time></trkpt>
<trkpt lat="46.63511" lon="6.35992"><ele></ele><time>2016-12-16T0:23:38Z</time></trkpt>
<trkpt lat="46.63494" lon="6.36004"><ele></ele><time>2016-12-16T0:23:41Z</time></trkpt>
<trkpt lat="46.63486" lon="6.3601"><ele></ele><time>2016-12-16T0:23:44Z</time></trkpt>
<trkpt lat="46.63475" lon="6.3603"><ele></ele><time>2016-12-16T0:23:47Z</time></trkpt>
<trkpt lat="46.63487" lon="6.36047"><ele></ele><time>2016-12-16T0:23:50Z</time></trkpt>
<trkpt lat="46.63495" lon="6.3605"><ele></ele><time>2016-12-16T0:23:53Z</time></trkpt>
<trkpt lat="46.63518" lon="6.36057"><ele></ele><time>2016-12-16T0:23:56Z</time></trkpt>
<trkpt lat="46.63544" lon="6.36057"><ele></ele><time>2016-12-16T0:23:59Z</time></trkpt>
<trkpt lat="46.63552" lon="6.36058"><ele></ele><time>2016-12-16T0:24:2Z</time></trkpt>
<trkpt lat="46.63565" lon="6.3608"><ele></ele><time>2016-12-16T0:24:5Z</time></trkpt>
<trkpt lat="46.63567" lon="6.36111"><ele></ele><time>2016-12-16T0:24:8Z</time></trkpt>
<trkpt lat="46.63567" lon="6.36132"><ele></ele><time>2016-12-16T0:24:11Z</time></trkpt>
<trkpt lat="46.63573" lon="6.36163"><ele></ele><time>2016-12-16T0:24:14Z</time></trkpt>
<trkpt lat="46.63576" lon="6.36174"><ele></ele><time>2016-12-16T0:24:17Z</time></trkpt>
<trkpt lat="46.63579" lon="6.36185"><ele></ele><time>2016-12-16T0:24:20Z</time></trkpt>
<trkpt lat="46.63583" lon="6.36197"><ele></ele><time>2016-12-16T0:24:23Z</time></trkpt>
<trkpt lat="46.63587" lon="6.36209"><ele></ele><time>2016-12-16T0:24:26Z</time></trkpt>
<trkpt lat="46.63599" lon="6.36239"><ele></ele><time>2016-12-16T0:24:29Z</time></trkpt>
<trkpt lat="46.636" lon="6.36274"><ele></ele><time>2016-12-16T0:24:32Z</time></trkpt>
<trkpt lat="46.63595" lon="6.36299"><ele></ele><time>2016-12-16T0:24:35Z</time></trkpt>
<trkpt lat="46.63592" lon="6.36328"><ele></ele><time>2016-12-16T0:24:38Z</time></trkpt>
<trkpt lat="46.63588" lon="6.36359"><ele></ele><time>2016-12-16T0:24:41Z</time></trkpt>
<trkpt lat="46.63585" lon="6.36388"><ele></ele><time>2016-12-16T0:24:44Z</time></trkpt>
<trkpt lat="46.63581" lon="6.36421"><ele></ele><time>2016-12-16T0:24:47Z</time></trkpt>
<trkpt lat="46.6358" lon="6.36438"><ele></ele><time>2016-12-16T0:24:50Z</time></trkpt>
<trkpt lat="46.63579" lon="6.36469"><ele></ele><time>2016-12-16T0:24:53Z</time></trkpt>
<trkpt lat="46.63581" lon="6.36499"><ele></ele><time>2016-12-16T0:24:56Z</time></trkpt>
<trkpt lat="46.6358" lon="6.36527"><ele></ele><time>2016-12-16T0:24:59Z</time></trkpt>
<trkpt lat="46.63574" lon="6.36557"><ele></ele><time>2016-12-16T0:25:2Z</time></trkpt>
<trkpt lat="46.63569" lon="6.36586"><ele></ele><time>2016-12-16T0:25:5Z</time></trkpt>
<trkpt lat="46.63563" lon="6.36613"><ele></ele><time>2016-12-16T0:25:8Z</time></trkpt>
<trkpt lat="46.63553" lon="6.36638"><ele></ele><time>2016-12-16T0:25:11Z</time></trkpt>
<trkpt lat="46.6354" lon="6.36661"><ele></ele><time>2016-12-16T0:25:14Z</time></trkpt>
<trkpt lat="46.63525" lon="6.36681"><ele></ele><time>2016-12-16T0:25:17Z</time></trkpt>
<trkpt lat="46.63508" lon="6.36702"><ele></ele><time>2016-12-16T0:25:20Z</time></trkpt>
<trkpt lat="46.63492" lon="6.36725"><ele></ele><time>2016-12-16T0:25:23Z</time></trkpt>
<trkpt lat="46.63477" lon="6.36747"><ele></ele><time>2016-12-16T0:25:26Z</time></trkpt>
<trkpt lat="46.63461" lon="6.36763"><ele></ele><time>2016-12-16T0:25:29Z</time></trkpt>
<trkpt lat="46.63443" lon="6.36773"><ele></ele><time>2016-12-16T0:25:32Z</time></trkpt>
<trkpt lat="46.63421" lon="6.36778"><ele></ele><time>2016-12-16T0:25:35Z</time></trkpt>
<trkpt lat="46.63397" lon="6.36773"><ele></ele><time>2016-12-16T0:25:38Z</time></trkpt>
<trkpt lat="46.63389" lon="6.36769"><ele></ele><time>2016-12-16T0:25:41Z</time></trkpt>
<trkpt lat="46.63381" lon="6.36764"><ele></ele><time>2016-12-16T0:25:44Z</time></trkpt>
<trkpt lat="46.63365" lon="6.36751"><ele></ele><time>2016-12-16T0:25:47Z</time></trkpt>
<trkpt lat="46.63349" lon="6.36734"><ele></ele><time>2016-12-16T0:25:50Z</time></trkpt>
<trkpt lat="46.63334" lon="6.36718"><ele></ele><time>2016-12-16T0:25:53Z</time></trkpt>
<trkpt lat="46.63316" lon="6.36704"><ele></ele><time>2016-12-16T0:25:56Z</time></trkpt>
<trkpt lat="46.63297" lon="6.36697"><ele></ele><time>2016-12-16T0:25:59Z</time></trkpt>
<trkpt lat="46.63278" lon="6.36698"><ele></ele><time>2016-12-16T0:26:2Z</time></trkpt>
<trkpt lat="46.63268" lon="6.367"><ele></ele><time>2016-12-16T0:26:5Z</time></trkpt>
<trkpt lat="46.63244" lon="6.36705"><ele></ele><time>2016-12-16T0:26:8Z</time></trkpt>
<trkpt lat="46.63224" lon="6.36712"><ele></ele><time>2016-12-16T0:26:11Z</time></trkpt>
<trkpt lat="46.63214" lon="6.36715"><ele></ele><time>2016-12-16T0:26:14Z</time></trkpt>
<trkpt lat="46.63209" lon="6.36716"><ele></ele><time>2016-12-16T0:26:17Z</time></trkpt>
<trkpt lat="46.63188" lon="6.36716"><ele></ele><time>2016-12-16T0:26:20Z</time></trkpt>
<trkpt lat="46.63167" lon="6.36713"><ele></ele><time>2016-12-16T0:26:23Z</time></trkpt>
<trkpt lat="46.63157" lon="6.36711"><ele></ele><time>2016-12-16T0:26:26Z</time></trkpt>
<trkpt lat="46.63134" lon="6.36701"><ele></ele><time>2016-12-16T0:26:29Z</time></trkpt>
<trkpt lat="46.63116" lon="6.36692"><ele></ele><time>2016-12-16T0:26:32Z</time></trkpt>
<trkpt lat="46.63109" lon="6.3669"><ele></ele><time>2016-12-16T0:26:35Z</time></trkpt>
<trkpt lat="46.63094" lon="6.36692"><ele></ele><time>2016-12-16T0:26:38Z</time></trkpt>
<trkpt lat="46.63073" lon="6.36707"><ele></ele><time>2016-12-16T0:26:41Z</time></trkpt>
<trkpt lat="46.63066" lon="6.36714"><ele></ele><time>2016-12-16T0:26:44Z</time></trkpt>
<trkpt lat="46.63043" lon="6.36735"><ele></ele><time>2016-12-16T0:26:47Z</time></trkpt>
<trkpt lat="46.63028" lon="6.36751"><ele></ele><time>2016-12-16T0:26:50Z</time></trkpt>
<trkpt lat="46.63021" lon="6.36761"><ele></ele><time>2016-12-16T0:26:53Z</time></trkpt>
<trkpt lat="46.63009" lon="6.36783"><ele></ele><time>2016-12-16T0:26:56Z</time></trkpt>
<trkpt lat="46.63006" lon="6.36796"><ele></ele><time>2016-12-16T0:26:59Z</time></trkpt>
<trkpt lat="46.63" lon="6.36821"><ele></ele><time>2016-12-16T0:27:2Z</time></trkpt>
<trkpt lat="46.62992" lon="6.36847"><ele></ele><time>2016-12-16T0:27:5Z</time></trkpt>
<trkpt lat="46.62983" lon="6.3687"><ele></ele><time>2016-12-16T0:27:8Z</time></trkpt>
<trkpt lat="46.62973" lon="6.36896"><ele></ele><time>2016-12-16T0:27:11Z</time></trkpt>
<trkpt lat="46.62962" lon="6.3692"><ele></ele><time>2016-12-16T0:27:14Z</time></trkpt>
<trkpt lat="46.62951" lon="6.36945"><ele></ele><time>2016-12-16T0:27:17Z</time></trkpt>
<trkpt lat="46.62946" lon="6.36957"><ele></ele><time>2016-12-16T0:27:20Z</time></trkpt>
<trkpt lat="46.62935" lon="6.36982"><ele></ele><time>2016-12-16T0:27:23Z</time></trkpt>
<trkpt lat="46.62925" lon="6.37007"><ele></ele><time>2016-12-16T0:27:26Z</time></trkpt>
<trkpt lat="46.62916" lon="6.37032"><ele></ele><time>2016-12-16T0:27:29Z</time></trkpt>
<trkpt lat="46.62908" lon="6.37058"><ele></ele><time>2016-12-16T0:27:32Z</time></trkpt>
<trkpt lat="46.62901" lon="6.37084"><ele></ele><time>2016-12-16T0:27:35Z</time></trkpt>
<trkpt lat="46.62895" lon="6.37111"><ele></ele><time>2016-12-16T0:27:38Z</time></trkpt>
<trkpt lat="46.62891" lon="6.37149"><ele></ele><time>2016-12-16T0:27:41Z</time></trkpt>
<trkpt lat="46.62888" lon="6.3716"><ele></ele><time>2016-12-16T0:27:44Z</time></trkpt>
<trkpt lat="46.62878" lon="6.37189"><ele></ele><time>2016-12-16T0:27:47Z</time></trkpt>
<trkpt lat="46.62874" lon="6.37197"><ele></ele><time>2016-12-16T0:27:50Z</time></trkpt>
<trkpt lat="46.6286" lon="6.37213"><ele></ele><time>2016-12-16T0:27:53Z</time></trkpt>
<trkpt lat="46.62849" lon="6.37218"><ele></ele><time>2016-12-16T0:27:56Z</time></trkpt>
<trkpt lat="46.62825" lon="6.37223"><ele></ele><time>2016-12-16T0:27:59Z</time></trkpt>
<trkpt lat="46.6282" lon="6.37223"><ele></ele><time>2016-12-16T0:28:2Z</time></trkpt>
<trkpt lat="46.62809" lon="6.37222"><ele></ele><time>2016-12-16T0:28:5Z</time></trkpt>
<trkpt lat="46.62791" lon="6.3721"><ele></ele><time>2016-12-16T0:28:8Z</time></trkpt>
<trkpt lat="46.62784" lon="6.37196"><ele></ele><time>2016-12-16T0:28:11Z</time></trkpt>
<trkpt lat="46.62772" lon="6.37173"><ele></ele><time>2016-12-16T0:28:14Z</time></trkpt>
<trkpt lat="46.6276" lon="6.37148"><ele></ele><time>2016-12-16T0:28:17Z</time></trkpt>
<trkpt lat="46.62746" lon="6.37123"><ele></ele><time>2016-12-16T0:28:20Z</time></trkpt>
<trkpt lat="46.62735" lon="6.37098"><ele></ele><time>2016-12-16T0:28:23Z</time></trkpt>
<trkpt lat="46.62721" lon="6.37074"><ele></ele><time>2016-12-16T0:28:26Z</time></trkpt>
<trkpt lat="46.62707" lon="6.37053"><ele></ele><time>2016-12-16T0:28:29Z</time></trkpt>
<trkpt lat="46.62702" lon="6.37048"><ele></ele><time>2016-12-16T0:28:32Z</time></trkpt>
<trkpt lat="46.62691" lon="6.37037"><ele></ele><time>2016-12-16T0:28:35Z</time></trkpt>
<trkpt lat="46.62673" lon="6.37023"><ele></ele><time>2016-12-16T0:28:38Z</time></trkpt>
<trkpt lat="46.62654" lon="6.37014"><ele></ele><time>2016-12-16T0:28:41Z</time></trkpt>
<trkpt lat="46.62636" lon="6.37004"><ele></ele><time>2016-12-16T0:28:44Z</time></trkpt>
<trkpt lat="46.62629" lon="6.37002"><ele></ele><time>2016-12-16T0:28:47Z</time></trkpt>
<trkpt lat="46.62609" lon="6.36995"><ele></ele><time>2016-12-16T0:28:50Z</time></trkpt>
<trkpt lat="46.62588" lon="6.36987"><ele></ele><time>2016-12-16T0:28:53Z</time></trkpt>
<trkpt lat="46.62569" lon="6.36979"><ele></ele><time>2016-12-16T0:28:56Z</time></trkpt>
<trkpt lat="46.6255" lon="6.36971"><ele></ele><time>2016-12-16T0:28:59Z</time></trkpt>
<trkpt lat="46.62529" lon="6.36961"><ele></ele><time>2016-12-16T0:29:2Z</time></trkpt>
<trkpt lat="46.62508" lon="6.36951"><ele></ele><time>2016-12-16T0:29:5Z</time></trkpt>
<trkpt lat="46.62483" lon="6.36943"><ele></ele><time>2016-12-16T0:29:8Z</time></trkpt>
<trkpt lat="46.6246" lon="6.36939"><ele></ele><time>2016-12-16T0:29:11Z</time></trkpt>
<trkpt lat="46.62436" lon="6.36936"><ele></ele><time>2016-12-16T0:29:14Z</time></trkpt>
<trkpt lat="46.6242" lon="6.36935"><ele></ele><time>2016-12-16T0:29:17Z</time></trkpt>
<trkpt lat="46.62402" lon="6.36935"><ele></ele><time>2016-12-16T0:29:20Z</time></trkpt>
<trkpt lat="46.62384" lon="6.36943"><ele></ele><time>2016-12-16T0:29:23Z</time></trkpt>
<trkpt lat="46.62364" lon="6.36954"><ele></ele><time>2016-12-16T0:29:26Z</time></trkpt>
<trkpt lat="46.62345" lon="6.36966"><ele></ele><time>2016-12-16T0:29:29Z</time></trkpt>
<trkpt lat="46.6232" lon="6.36978"><ele></ele><time>2016-12-16T0:29:32Z</time></trkpt>
<trkpt lat="46.62302" lon="6.36981"><ele></ele><time>2016-12-16T0:29:35Z</time></trkpt>
<trkpt lat="46.62282" lon="6.3698"><ele></ele><time>2016-12-16T0:29:38Z</time></trkpt>
<trkpt lat="46.6227" lon="6.36978"><ele></ele><time>2016-12-16T0:29:41Z</time></trkpt>
<trkpt lat="46.62248" lon="6.36975"><ele></ele><time>2016-12-16T0:29:44Z</time></trkpt>
<trkpt lat="46.62238" lon="6.36974"><ele></ele><time>2016-12-16T0:29:47Z</time></trkpt>
<trkpt lat="46.62227" lon="6.36975"><ele></ele><time>2016-12-16T0:29:50Z</time></trkpt>
<trkpt lat="46.62206" lon="6.36976"><ele></ele><time>2016-12-16T0:29:53Z</time></trkpt>
<trkpt lat="46.62197" lon="6.36976"><ele></ele><time>2016-12-16T0:29:56Z</time></trkpt>
<trkpt lat="46.62179" lon="6.3698"><ele></ele><time>2016-12-16T0:29:59Z</time></trkpt>
<trkpt lat="46.62159" lon="6.3698"><ele></ele><time>2016-12-16T0:30:2Z</time></trkpt>
<trkpt lat="46.62135" lon="6.36974"><ele></ele><time>2016-12-16T0:30:5Z</time></trkpt>
<trkpt lat="46.62111" lon="6.36965"><ele></ele><time>2016-12-16T0:30:8Z</time></trkpt>
<trkpt lat="46.62086" lon="6.36956"><ele></ele><time>2016-12-16T0:30:11Z</time></trkpt>
<trkpt lat="46.6206" lon="6.36951"><ele></ele><time>2016-12-16T0:30:14Z</time></trkpt>
<trkpt lat="46.62034" lon="6.36946"><ele></ele><time>2016-12-16T0:30:17Z</time></trkpt>
<trkpt lat="46.62011" lon="6.36941"><ele></ele><time>2016-12-16T0:30:20Z</time></trkpt>
<trkpt lat="46.61992" lon="6.36934"><ele></ele><time>2016-12-16T0:30:23Z</time></trkpt>
<trkpt lat="46.61973" lon="6.3693"><ele></ele><time>2016-12-16T0:30:26Z</time></trkpt>
<trkpt lat="46.61955" lon="6.36937"><ele></ele><time>2016-12-16T0:30:29Z</time></trkpt>
<trkpt lat="46.61939" lon="6.3695"><ele></ele><time>2016-12-16T0:30:32Z</time></trkpt>
<trkpt lat="46.61913" lon="6.36966"><ele></ele><time>2016-12-16T0:30:35Z</time></trkpt>
<trkpt lat="46.61893" lon="6.36974"><ele></ele><time>2016-12-16T0:30:38Z</time></trkpt>
<trkpt lat="46.61873" lon="6.36981"><ele></ele><time>2016-12-16T0:30:41Z</time></trkpt>
<trkpt lat="46.61847" lon="6.36985"><ele></ele><time>2016-12-16T0:30:44Z</time></trkpt>
<trkpt lat="46.61826" lon="6.3698"><ele></ele><time>2016-12-16T0:30:47Z</time></trkpt>
<trkpt lat="46.61805" lon="6.36963"><ele></ele><time>2016-12-16T0:30:50Z</time></trkpt>
<trkpt lat="46.61791" lon="6.36965"><ele></ele><time>2016-12-16T0:30:53Z</time></trkpt>
<trkpt lat="46.61782" lon="6.36991"><ele></ele><time>2016-12-16T0:30:56Z</time></trkpt>
<trkpt lat="46.61788" lon="6.37023"><ele></ele><time>2016-12-16T0:30:59Z</time></trkpt>
<trkpt lat="46.61791" lon="6.37032"><ele></ele><time>2016-12-16T0:31:2Z</time></trkpt>
<trkpt lat="46.61804" lon="6.37057"><ele></ele><time>2016-12-16T0:31:5Z</time></trkpt>
<trkpt lat="46.61823" lon="6.37076"><ele></ele><time>2016-12-16T0:31:8Z</time></trkpt>
<trkpt lat="46.6183" lon="6.37083"><ele></ele><time>2016-12-16T0:31:11Z</time></trkpt>
<trkpt lat="46.61838" lon="6.37089"><ele></ele><time>2016-12-16T0:31:14Z</time></trkpt>
<trkpt lat="46.61857" lon="6.37098"><ele></ele><time>2016-12-16T0:31:17Z</time></trkpt>
<trkpt lat="46.61878" lon="6.37104"><ele></ele><time>2016-12-16T0:31:20Z</time></trkpt>
<trkpt lat="46.61898" lon="6.37111"><ele></ele><time>2016-12-16T0:31:23Z</time></trkpt>
<trkpt lat="46.61907" lon="6.37116"><ele></ele><time>2016-12-16T0:31:26Z</time></trkpt>
<trkpt lat="46.61925" lon="6.37132"><ele></ele><time>2016-12-16T0:31:29Z</time></trkpt>
<trkpt lat="46.6194" lon="6.37153"><ele></ele><time>2016-12-16T0:31:32Z</time></trkpt>
<trkpt lat="46.61955" lon="6.37181"><ele></ele><time>2016-12-16T0:31:35Z</time></trkpt>
<trkpt lat="46.6197" lon="6.37211"><ele></ele><time>2016-12-16T0:31:38Z</time></trkpt>
<trkpt lat="46.61978" lon="6.37225"><ele></ele><time>2016-12-16T0:31:41Z</time></trkpt>
<trkpt lat="46.61993" lon="6.37249"><ele></ele><time>2016-12-16T0:31:44Z</time></trkpt>
<trkpt lat="46.62007" lon="6.37267"><ele></ele><time>2016-12-16T0:31:47Z</time></trkpt>
<trkpt lat="46.62012" lon="6.37274"><ele></ele><time>2016-12-16T0:31:50Z</time></trkpt>
<trkpt lat="46.62014" lon="6.37299"><ele></ele><time>2016-12-16T0:31:53Z</time></trkpt>
<trkpt lat="46.61992" lon="6.37304"><ele></ele><time>2016-12-16T0:31:56Z</time></trkpt>
<trkpt lat="46.61983" lon="6.373"><ele></ele><time>2016-12-16T0:31:59Z</time></trkpt>
<trkpt lat="46.61964" lon="6.37292"><ele></ele><time>2016-12-16T0:32:2Z</time></trkpt>
<trkpt lat="46.61945" lon="6.37285"><ele></ele><time>2016-12-16T0:32:5Z</time></trkpt>
<trkpt lat="46.61936" lon="6.37281"><ele></ele><time>2016-12-16T0:32:8Z</time></trkpt>
<trkpt lat="46.61927" lon="6.37282"><ele></ele><time>2016-12-16T0:32:11Z</time></trkpt>
<trkpt lat="46.61904" lon="6.37298"><ele></ele><time>2016-12-16T0:32:14Z</time></trkpt>
<trkpt lat="46.61879" lon="6.37298"><ele></ele><time>2016-12-16T0:32:17Z</time></trkpt>
<trkpt lat="46.61862" lon="6.37288"><ele></ele><time>2016-12-16T0:32:20Z</time></trkpt>
<trkpt lat="46.61847" lon="6.37273"><ele></ele><time>2016-12-16T0:32:23Z</time></trkpt>
<trkpt lat="46.61828" lon="6.37265"><ele></ele><time>2016-12-16T0:32:26Z</time></trkpt>
<trkpt lat="46.61835" lon="6.3729"><ele></ele><time>2016-12-16T0:32:29Z</time></trkpt>
<trkpt lat="46.61848" lon="6.3732"><ele></ele><time>2016-12-16T0:32:32Z</time></trkpt>
<trkpt lat="46.61853" lon="6.37332"><ele></ele><time>2016-12-16T0:32:35Z</time></trkpt>
<trkpt lat="46.61862" lon="6.37353"><ele></ele><time>2016-12-16T0:32:38Z</time></trkpt>
<trkpt lat="46.6188" lon="6.3737"><ele></ele><time>2016-12-16T0:32:41Z</time></trkpt>
<trkpt lat="46.61886" lon="6.37376"><ele></ele><time>2016-12-16T0:32:44Z</time></trkpt>
<trkpt lat="46.61897" lon="6.37401"><ele></ele><time>2016-12-16T0:32:47Z</time></trkpt>
<trkpt lat="46.619" lon="6.37409"><ele></ele><time>2016-12-16T0:32:50Z</time></trkpt>
<trkpt lat="46.6191" lon="6.37432"><ele></ele><time>2016-12-16T0:32:53Z</time></trkpt>
<trkpt lat="46.61918" lon="6.37451"><ele></ele><time>2016-12-16T0:32:56Z</time></trkpt>
<trkpt lat="46.61917" lon="6.37473"><ele></ele><time>2016-12-16T0:32:59Z</time></trkpt>
<trkpt lat="46.61905" lon="6.37486"><ele></ele><time>2016-12-16T0:33:2Z</time></trkpt>
<trkpt lat="46.61899" lon="6.37483"><ele></ele><time>2016-12-16T0:33:5Z</time></trkpt>
<trkpt lat="46.61892" lon="6.37479"><ele></ele><time>2016-12-16T0:33:8Z</time></trkpt>
<trkpt lat="46.61873" lon="6.37469"><ele></ele><time>2016-12-16T0:33:11Z</time></trkpt>
<trkpt lat="46.61851" lon="6.37458"><ele></ele><time>2016-12-16T0:33:14Z</time></trkpt>
<trkpt lat="46.61829" lon="6.37451"><ele></ele><time>2016-12-16T0:33:17Z</time></trkpt>
<trkpt lat="46.61802" lon="6.37444"><ele></ele><time>2016-12-16T0:33:20Z</time></trkpt>
<trkpt lat="46.6178" lon="6.37441"><ele></ele><time>2016-12-16T0:33:23Z</time></trkpt>
<trkpt lat="46.61756" lon="6.37435"><ele></ele><time>2016-12-16T0:33:26Z</time></trkpt>
<trkpt lat="46.61733" lon="6.37424"><ele></ele><time>2016-12-16T0:33:29Z</time></trkpt>
<trkpt lat="46.61711" lon="6.37412"><ele></ele><time>2016-12-16T0:33:32Z</time></trkpt>
<trkpt lat="46.61688" lon="6.37402"><ele></ele><time>2016-12-16T0:33:35Z</time></trkpt>
<trkpt lat="46.61666" lon="6.37394"><ele></ele><time>2016-12-16T0:33:38Z</time></trkpt>
<trkpt lat="46.61644" lon="6.37384"><ele></ele><time>2016-12-16T0:33:41Z</time></trkpt>
<trkpt lat="46.61624" lon="6.37374"><ele></ele><time>2016-12-16T0:33:44Z</time></trkpt>
<trkpt lat="46.61605" lon="6.37363"><ele></ele><time>2016-12-16T0:33:47Z</time></trkpt>
<trkpt lat="46.61587" lon="6.37356"><ele></ele><time>2016-12-16T0:33:50Z</time></trkpt>
<trkpt lat="46.6157" lon="6.3736"><ele></ele><time>2016-12-16T0:33:53Z</time></trkpt>
<trkpt lat="46.61554" lon="6.37373"><ele></ele><time>2016-12-16T0:33:56Z</time></trkpt>
<trkpt lat="46.61535" lon="6.37377"><ele></ele><time>2016-12-16T0:33:59Z</time></trkpt>
<trkpt lat="46.61514" lon="6.37379"><ele></ele><time>2016-12-16T0:34:2Z</time></trkpt>
<trkpt lat="46.61496" lon="6.37392"><ele></ele><time>2016-12-16T0:34:5Z</time></trkpt>
<trkpt lat="46.61488" lon="6.37401"><ele></ele><time>2016-12-16T0:34:8Z</time></trkpt>
<trkpt lat="46.61471" lon="6.37416"><ele></ele><time>2016-12-16T0:34:11Z</time></trkpt>
<trkpt lat="46.61462" lon="6.37422"><ele></ele><time>2016-12-16T0:34:14Z</time></trkpt>
<trkpt lat="46.61442" lon="6.37429"><ele></ele><time>2016-12-16T0:34:17Z</time></trkpt>
<trkpt lat="46.61423" lon="6.37435"><ele></ele><time>2016-12-16T0:34:20Z</time></trkpt>
<trkpt lat="46.61402" lon="6.37437"><ele></ele><time>2016-12-16T0:34:23Z</time></trkpt>
<trkpt lat="46.61379" lon="6.37436"><ele></ele><time>2016-12-16T0:34:26Z</time></trkpt>
<trkpt lat="46.61367" lon="6.37434"><ele></ele><time>2016-12-16T0:34:29Z</time></trkpt>
<trkpt lat="46.61355" lon="6.37431"><ele></ele><time>2016-12-16T0:34:32Z</time></trkpt>
<trkpt lat="46.61343" lon="6.37429"><ele></ele><time>2016-12-16T0:34:35Z</time></trkpt>
<trkpt lat="46.61321" lon="6.3742"><ele></ele><time>2016-12-16T0:34:38Z</time></trkpt>
<trkpt lat="46.613" lon="6.37412"><ele></ele><time>2016-12-16T0:34:41Z</time></trkpt>
<trkpt lat="46.61279" lon="6.37409"><ele></ele><time>2016-12-16T0:34:44Z</time></trkpt>
<trkpt lat="46.61268" lon="6.37411"><ele></ele><time>2016-12-16T0:34:47Z</time></trkpt>
<trkpt lat="46.61244" lon="6.37418"><ele></ele><time>2016-12-16T0:34:50Z</time></trkpt>
<trkpt lat="46.61219" lon="6.37426"><ele></ele><time>2016-12-16T0:34:53Z</time></trkpt>
<trkpt lat="46.61194" lon="6.37438"><ele></ele><time>2016-12-16T0:34:56Z</time></trkpt>
<trkpt lat="46.61183" lon="6.37445"><ele></ele><time>2016-12-16T0:34:59Z</time></trkpt>
<trkpt lat="46.6116" lon="6.37458"><ele></ele><time>2016-12-16T0:35:2Z</time></trkpt>
<trkpt lat="46.61138" lon="6.37467"><ele></ele><time>2016-12-16T0:35:5Z</time></trkpt>
<trkpt lat="46.61115" lon="6.37472"><ele></ele><time>2016-12-16T0:35:8Z</time></trkpt>
<trkpt lat="46.61091" lon="6.37475"><ele></ele><time>2016-12-16T0:35:11Z</time></trkpt>
<trkpt lat="46.61068" lon="6.37483"><ele></ele><time>2016-12-16T0:35:14Z</time></trkpt>
<trkpt lat="46.61048" lon="6.375"><ele></ele><time>2016-12-16T0:35:17Z</time></trkpt>
<trkpt lat="46.61026" lon="6.37518"><ele></ele><time>2016-12-16T0:35:20Z</time></trkpt>
<trkpt lat="46.61015" lon="6.37525"><ele></ele><time>2016-12-16T0:35:23Z</time></trkpt>
<trkpt lat="46.61003" lon="6.37531"><ele></ele><time>2016-12-16T0:35:26Z</time></trkpt>
<trkpt lat="46.60977" lon="6.37542"><ele></ele><time>2016-12-16T0:35:29Z</time></trkpt>
<trkpt lat="46.60952" lon="6.37556"><ele></ele><time>2016-12-16T0:35:32Z</time></trkpt>
<trkpt lat="46.60928" lon="6.37569"><ele></ele><time>2016-12-16T0:35:35Z</time></trkpt>
<trkpt lat="46.60904" lon="6.3758"><ele></ele><time>2016-12-16T0:35:38Z</time></trkpt>
<trkpt lat="46.60879" lon="6.37592"><ele></ele><time>2016-12-16T0:35:41Z</time></trkpt>
<trkpt lat="46.60855" lon="6.37605"><ele></ele><time>2016-12-16T0:35:44Z</time></trkpt>
<trkpt lat="46.60832" lon="6.37617"><ele></ele><time>2016-12-16T0:35:47Z</time></trkpt>
<trkpt lat="46.60809" lon="6.37628"><ele></ele><time>2016-12-16T0:35:50Z</time></trkpt>
<trkpt lat="46.60791" lon="6.37638"><ele></ele><time>2016-12-16T0:35:53Z</time></trkpt>
<trkpt lat="46.60768" lon="6.37653"><ele></ele><time>2016-12-16T0:35:56Z</time></trkpt>
<trkpt lat="46.60755" lon="6.37663"><ele></ele><time>2016-12-16T0:35:59Z</time></trkpt>
<trkpt lat="46.6074" lon="6.37682"><ele></ele><time>2016-12-16T0:36:2Z</time></trkpt>
<trkpt lat="46.60721" lon="6.37693"><ele></ele><time>2016-12-16T0:36:5Z</time></trkpt>
<trkpt lat="46.60713" lon="6.37688"><ele></ele><time>2016-12-16T0:36:8Z</time></trkpt>
<trkpt lat="46.60694" lon="6.37673"><ele></ele><time>2016-12-16T0:36:11Z</time></trkpt>
<trkpt lat="46.60681" lon="6.37666"><ele></ele><time>2016-12-16T0:36:14Z</time></trkpt>
<trkpt lat="46.60662" lon="6.37663"><ele></ele><time>2016-12-16T0:36:17Z</time></trkpt>
<trkpt lat="46.60653" lon="6.37661"><ele></ele><time>2016-12-16T0:36:20Z</time></trkpt>
<trkpt lat="46.60649" lon="6.3766"><ele></ele><time>2016-12-16T0:36:23Z</time></trkpt>
<trkpt lat="46.60628" lon="6.37651"><ele></ele><time>2016-12-16T0:36:26Z</time></trkpt>
<trkpt lat="46.60624" lon="6.37648"><ele></ele><time>2016-12-16T0:36:29Z</time></trkpt>
<trkpt lat="46.60611" lon="6.37636"><ele></ele><time>2016-12-16T0:36:32Z</time></trkpt>
<trkpt lat="46.60596" lon="6.37624"><ele></ele><time>2016-12-16T0:36:35Z</time></trkpt>
<trkpt lat="46.60577" lon="6.37611"><ele></ele><time>2016-12-16T0:36:38Z</time></trkpt>
<trkpt lat="46.60566" lon="6.37603"><ele></ele><time>2016-12-16T0:36:41Z</time></trkpt>
<trkpt lat="46.60554" lon="6.37596"><ele></ele><time>2016-12-16T0:36:44Z</time></trkpt>
<trkpt lat="46.60542" lon="6.3759"><ele></ele><time>2016-12-16T0:36:47Z</time></trkpt>
<trkpt lat="46.60538" lon="6.37589"><ele></ele><time>2016-12-16T0:36:50Z</time></trkpt>
<trkpt lat="46.60531" lon="6.37586"><ele></ele><time>2016-12-16T0:36:53Z</time></trkpt>
<trkpt lat="46.60528" lon="6.37584"><ele></ele><time>2016-12-16T0:36:56Z</time></trkpt>
<trkpt lat="46.60509" lon="6.37574"><ele></ele><time>2016-12-16T0:36:59Z</time></trkpt>
<trkpt lat="46.60505" lon="6.37571"><ele></ele><time>2016-12-16T0:37:2Z</time></trkpt>
<trkpt lat="46.60485" lon="6.37556"><ele></ele><time>2016-12-16T0:37:5Z</time></trkpt>
<trkpt lat="46.60471" lon="6.37542"><ele></ele><time>2016-12-16T0:37:8Z</time></trkpt>
<trkpt lat="46.60452" lon="6.37523"><ele></ele><time>2016-12-16T0:37:11Z</time></trkpt>
<trkpt lat="46.60442" lon="6.37514"><ele></ele><time>2016-12-16T0:37:14Z</time></trkpt>
<trkpt lat="46.60426" lon="6.37499"><ele></ele><time>2016-12-16T0:37:17Z</time></trkpt>
<trkpt lat="46.6041" lon="6.37487"><ele></ele><time>2016-12-16T0:37:20Z</time></trkpt>
<trkpt lat="46.60392" lon="6.37474"><ele></ele><time>2016-12-16T0:37:23Z</time></trkpt>
<trkpt lat="46.60373" lon="6.37459"><ele></ele><time>2016-12-16T0:37:26Z</time></trkpt>
<trkpt lat="46.60356" lon="6.37446"><ele></ele><time>2016-12-16T0:37:29Z</time></trkpt>
<trkpt lat="46.6035" lon="6.37443"><ele></ele><time>2016-12-16T0:37:32Z</time></trkpt>
<trkpt lat="46.60338" lon="6.37441"><ele></ele><time>2016-12-16T0:37:35Z</time></trkpt>
<trkpt lat="46.60326" lon="6.37443"><ele></ele><time>2016-12-16T0:37:38Z</time></trkpt>
<trkpt lat="46.60303" lon="6.37446"><ele></ele><time>2016-12-16T0:37:41Z</time></trkpt>
<trkpt lat="46.60298" lon="6.37447"><ele></ele><time>2016-12-16T0:37:44Z</time></trkpt>
<trkpt lat="46.60279" lon="6.37446"><ele></ele><time>2016-12-16T0:37:47Z</time></trkpt>
<trkpt lat="46.6026" lon="6.37446"><ele></ele><time>2016-12-16T0:37:50Z</time></trkpt>
<trkpt lat="46.60237" lon="6.37444"><ele></ele><time>2016-12-16T0:37:53Z</time></trkpt>
<trkpt lat="46.60219" lon="6.37432"><ele></ele><time>2016-12-16T0:37:56Z</time></trkpt>
<trkpt lat="46.60209" lon="6.37409"><ele></ele><time>2016-12-16T0:37:59Z</time></trkpt>
<trkpt lat="46.60209" lon="6.37404"><ele></ele><time>2016-12-16T0:38:2Z</time></trkpt>
<trkpt lat="46.60209" lon="6.37377"><ele></ele><time>2016-12-16T0:38:5Z</time></trkpt>
<trkpt lat="46.60208" lon="6.3737"><ele></ele><time>2016-12-16T0:38:8Z</time></trkpt>
<trkpt lat="46.60204" lon="6.37349"><ele></ele><time>2016-12-16T0:38:11Z</time></trkpt>
<trkpt lat="46.60188" lon="6.37325"><ele></ele><time>2016-12-16T0:38:14Z</time></trkpt>
<trkpt lat="46.60171" lon="6.37313"><ele></ele><time>2016-12-16T0:38:17Z</time></trkpt>
<trkpt lat="46.60154" lon="6.37301"><ele></ele><time>2016-12-16T0:38:20Z</time></trkpt>
<trkpt lat="46.60137" lon="6.3729"><ele></ele><time>2016-12-16T0:38:23Z</time></trkpt>
<trkpt lat="46.60115" lon="6.37274"><ele></ele><time>2016-12-16T0:38:26Z</time></trkpt>
<trkpt lat="46.6011" lon="6.37269"><ele></ele><time>2016-12-16T0:38:29Z</time></trkpt>
<trkpt lat="46.60103" lon="6.37242"><ele></ele><time>2016-12-16T0:38:32Z</time></trkpt>
<trkpt lat="46.60106" lon="6.3721"><ele></ele><time>2016-12-16T0:38:35Z</time></trkpt>
<trkpt lat="46.60112" lon="6.37188"><ele></ele><time>2016-12-16T0:38:38Z</time></trkpt>
<trkpt lat="46.6012" lon="6.37164"><ele></ele><time>2016-12-16T0:38:41Z</time></trkpt>
<trkpt lat="46.60125" lon="6.37139"><ele></ele><time>2016-12-16T0:38:44Z</time></trkpt>
<trkpt lat="46.60127" lon="6.37126"><ele></ele><time>2016-12-16T0:38:47Z</time></trkpt>
<trkpt lat="46.60124" lon="6.37088"><ele></ele><time>2016-12-16T0:38:50Z</time></trkpt>
<trkpt lat="46.60118" lon="6.37064"><ele></ele><time>2016-12-16T0:38:53Z</time></trkpt>
<trkpt lat="46.60116" lon="6.37051"><ele></ele><time>2016-12-16T0:38:56Z</time></trkpt>
<trkpt lat="46.60115" lon="6.37025"><ele></ele><time>2016-12-16T0:38:59Z</time></trkpt>
<trkpt lat="46.60116" lon="6.36987"><ele></ele><time>2016-12-16T0:39:2Z</time></trkpt>
<trkpt lat="46.60116" lon="6.36963"><ele></ele><time>2016-12-16T0:39:5Z</time></trkpt>
<trkpt lat="46.6011" lon="6.36931"><ele></ele><time>2016-12-16T0:39:8Z</time></trkpt>
<trkpt lat="46.60101" lon="6.36904"><ele></ele><time>2016-12-16T0:39:11Z</time></trkpt>
<trkpt lat="46.60092" lon="6.36882"><ele></ele><time>2016-12-16T0:39:14Z</time></trkpt>
<trkpt lat="46.60079" lon="6.36859"><ele></ele><time>2016-12-16T0:39:17Z</time></trkpt>
<trkpt lat="46.60065" lon="6.36836"><ele></ele><time>2016-12-16T0:39:20Z</time></trkpt>
<trkpt lat="46.60061" lon="6.36827"><ele></ele><time>2016-12-16T0:39:23Z</time></trkpt>
<trkpt lat="46.60052" lon="6.36826"><ele></ele><time>2016-12-16T0:39:26Z</time></trkpt>
<trkpt lat="46.60045" lon="6.3685"><ele></ele><time>2016-12-16T0:39:29Z</time></trkpt>
<trkpt lat="46.60042" lon="6.36863"><ele></ele><time>2016-12-16T0:39:32Z</time></trkpt>
<trkpt lat="46.60042" lon="6.36863"><ele></ele><time>2016-12-16T0:39:35Z</time></trkpt>
<trkpt lat="46.60044" lon="6.36859"><ele></ele><time>2016-12-16T0:39:38Z</time></trkpt>
<trkpt lat="46.60044" lon="6.3686"><ele></ele><time>2016-12-16T0:39:41Z</time></trkpt>
</trkseg></trk></gpx>